FestivalNet.com: Music Festivals, Fine Art Fairs, Craft Shows, Marketplace for Arts and Crafts, and Festival Vendor Community.
FNO Members    User ID:
 Password:
      get password
Largest database of North American Fine Art Fairs, Music Festivals, & Craft Shows plus Festival Booking Tools from Festival Network Online!
Reverse the deadline dates to show in the opposite order.
Put the show dates in order, click again to reverse the order.
Sort the event names in alphabetical order. Click again to reverse the order.
Put the states or provinces in order alphabetically. The cities are listed alphabetically within each state.
Festival Network Online: Festival Industry Partners Art Fairs, Music Festivals, Craft Shows Fine Art, Handmade, Crafts


FNO Show Deadlines Reminder

 

Welcome to our Deadlines Reminder page - a Free service from FestivalNet.com
You will find deadlines for: Artists/Crafters, Musicians/Performers, Food Vendors & Commercial Vendors.

Viewing deadlines for     Deadlines FAQ

 

Show deadlines - Artists/Crafters

 
Deadline Show dates Show Name Show Location
05/01/2015 05/14 to 05/17 2015 Salinas Valley Fair King City, CA
05/01/2015 06/20 to 06/21 2015 The Northern California Pirate Festival Vallejo, CA
05/01/2015 08/01 to 08/01 2015 Bronc Day Green Mountain Falls, CO
05/01/2015 05/02 to 05/02 2015 Aroostook Artisans Craft Fair Van Buren, ME
05/01/2015 08/14 to 08/15 2015 Frankfort Art Fair Frankfort, MI
05/01/2015 06/20 to 06/20 2015 Frankfort Craft Fair Frankfort, MI
05/01/2015 07/10 to 07/11 2015 Lowell Riverwalk Festival Lowell, MI
05/01/2015 05/15 to 05/16 2015 Nixa Sucker Day Nixa, MO
05/01/2015 05/29 to 05/30 2015 Magnolia State Fiber Festival Vicksburg, MS
05/01/2015 05/16 to 05/16 2015 Carolina Beach Street Arts Festival Carolina Beach, NC
05/01/2015 05/07 to 05/09 2015 Doyle Lawson & Quicksilver Bluegrass Festival Denton, NC
05/01/2015 05/02 to 05/03 2015 Kitty Angels Fundraiser/Flea Market & Fair Amherst, NH
05/01/2015 05/20 to 05/23 2015 Blossburg Coal Festival Blossburg, PA
05/01/2015 05/tba to 05/tba 2015 Taste of Home Erie, PA
05/01/2015 05/01 to 05/02 2015 McColl Mayfest Mccoll, SC
05/01/2015 05/01 to 05/03 2015 Street Rod Nationals South Plus Knoxville, TN
05/01/2015 05/01 to 05/03 2014 Brenham Maifest Brenham, TX
05/01/2015 05/08 to 05/10 2015 Texas Crab Festival Crystal Beach, TX
05/01/2015 05/17 to 05/17 2015 Nature's Images Art Fair Kaukauna, WI
05/01/2014 05/17 to 05/17 2014 Do Dah Day Birmingham, AL
05/01/2014 05/05 to 05/05 2014 Grits Festival Childersburg, AL
05/01/2014 05/10 to 05/10 2014 PAWS in the Park Florence, AL
05/01/2014 10/04 to 10/04 2014 Bluff Park Art Show Hoover, AL
05/01/2014 06/05 to 06/07 2014 Steamboat Days Festival Des Arc, AR
05/01/2014 07/19 to 07/20 2014 Arizona Highland Celtic Festival Flagstaff, AZ
05/01/2014 07/04 to 07/06 2014 Flagstaff Art in the Park Fourth of July Show Flagstaff, AZ
05/01/2014 06/21 to 06/22 2014 The Big Heap Vintage and Handmade Festival Flagstaff Flagstaff, AZ
05/01/2014 07/04 to 07/06 2014 Neafaa Art & Craft Festival Pinetop, AZ
05/01/2014 06/28 to 06/28 2014 Fusion Music Fest Agoura Hills, CA
05/01/2014 05/10 to 05/10 2014 Anaheim Western Barbecue Anaheim, CA
05/01/2014 05/29 to 06/01 2014 Contra Costa County Fair Antioch, CA
05/01/2014 05/23 to 05/25 2014 Standing Bear Pow Wow Bakersfield, CA
05/01/2014 06/05 to 06/08 2014 Beaumont Cherry Festival Beaumont, CA
05/01/2014 05/31 to 05/31 2014 Chocolate & Chalk Art Festival Berkeley, CA
05/01/2014 08/28 to 09/31 2014 Eastern Sierra Tri-County Fair Bishop, CA
05/01/2014 09/13 to 09/14 2014 Capitola Art & Wine Festival Capitola, CA
05/01/2014 07/04 to 07/04 2014 Chester Fourth of July Arts and Craft Show Chester, CA
05/01/2014 07/04 to 07/04 2014 Independence Day Celebration Claremont, CA
05/01/2014 07/04 to 07/04 2014 Crescent City 4th of July Fest Crescent City, CA
05/01/2014 06/07 to 10/04 2014 Wine and Stein in the Pines Crestline, CA
05/01/2014 05/18 to 05/18 2014 Worldfest Encino, CA
05/01/2014 05/18 to 05/18 2014 Niles Wildflower, Art, Garden and Quilt Show Fremont, CA
05/01/2014 05/17 to 05/18 2014 Galt Strawberry Festival Galt, CA
05/01/2014 09/20 to 09/21 2014 Russian River Jazz and Blues Festival Guerneville, CA
05/01/2014 06/14 to 06/15 2014 Isleton Cajun and Blues Festival Isleton, CA
05/01/2014 06/07 to 06/07 2014 Old Lewiston Peddlers Faire Lewiston, CA
05/01/2014 05/10 to 05/10 2014 Asian Pacific Spring Festival Locke, CA
05/01/2014 06/01 to 06/01 2014 Residents of Beverly Glen Fair Los Angeles, CA
05/01/2014 06/06 to 06/08 2014 Modesto American Graffiti Festival Modesto, CA
05/01/2014 09/19 to 09/21 2014 Monterey Jazz Festival Monterey, CA
05/01/2014 05/17 to 05/18 2014 Springfest Monterey, CA
05/01/2014 06/28 to 06/28 2014 Ojai Valley Lavender Festival Ojai, CA
05/01/2014 05/15 to 05/18 2014 Orangevale Pow Wow Days Orangevale, CA
05/01/2014 07/31 to 08/03 2014 Reggae on the River Piercy, CA
05/01/2014 05/14 to 05/18 2014 Porterville Fair Porterville, CA
05/01/2014 05/10 to 05/10 2014 Beadman May Craft Show Redding, CA
05/01/2014 05/08 to 05/11 2014 Gator by the Bay San Diego, CA
05/01/2014 08/08 to 08/10 2014 Outside Lands Music & Arts Festival San Francisco, CA
05/01/2014 05/23 to 05/25 2014 San Francisco Carnaval/Eco Village San Francisco, CA
05/01/2014 05/10 to 05/10 2014 San Francisco Oysterfest San Francisco, CA
05/01/2014 05/10 to 05/10 2014 Second Saturday Art Fair - May San Juan Capistrano, CA
05/01/2014 06/14 to 09/tba 2014 Skaters Point Music Festival Santa Barbara, CA
05/01/2014 08/09 to 08/10 2014 Gravenstein Apple Fair Sebastopol, CA
05/01/2014 07/04 to 07/04 2014 Valley of the Moon Art and Artisan Show Sonoma, CA
05/01/2014 05/31 to 06/08 2014 Valhalla Renaissance Faire South Lake Tahoe, CA
05/01/2014 05/10 to 05/11 2014 Mother's Day Festival of Arts and Crafts Studio City, CA
05/01/2014 05/11 to 05/11 2014 Mother's Day Artisan Fair Suisun City, CA
05/01/2014 05/10 to 05/10 2014 A Day in the Shade Templeton, CA
05/01/2014 06/28 to 06/29 2014 Gourdstock Festival 2014 Valley Center, CA
05/01/2014 07/30 to 08/10 2014 Ventura County Fair Ventura, CA
05/01/2014 06/29 to 06/30 2014 San Diego Scottish Highland Games and Gathering Vista, CA
05/01/2014 09/19 to 09/20 2014 Unique Boutique Fall Craft Show Centennial, CO
05/01/2014 11/14 to 11/15 2014 Unique Boutique Holiday Craft Show Centennial, CO
05/01/2014 05/10 to 05/10 2014 Yard Sale Colorado Springs, CO
05/01/2014 07/19 to 07/20 2014 Colorado Dragon Boat Festival Denver, CO
05/01/2014 06/14 to 06/14 2014 Highlands Street Fair Denver, CO
05/01/2014 05/25 to 05/26 2014 Old South Gaylord Memorial Day Weekend Festival Denver, CO
05/01/2014 07/19 to 07/20 2014 Orthodox Food Festival & Old Globeville Days Denver, CO
05/01/2014 06/13 to 06/15 2014 Taste of Fort Collins Fort Collins, CO
05/01/2014 08/02 to 08/03 2014 Bluegrass and Beer Festival Keystone, CO
05/01/2014 05/31 to 05/31 2014 Manitou Springs Colorado Wine Festival Manitou Springs, CO
05/01/2014 07/12 to 07/13 2014 Summerfest Art Show Pagosa Springs, CO
05/01/2014 07/04 to 07/12 2014 Pueblo County 4-H/FFA Fair Pueblo, CO
05/01/2014 06/13 to 06/15 2014 Snowmass Mammoth Fest Snowmass Village, CO
05/01/2014 08/15 to 08/17 2014 Steamboat All Arts Festival Yampa River Art Stroll Steamboat Springs, CO
05/01/2014 06/14 to 06/14 2014 Fathers Day Expo Sterling, CO
05/01/2014 08/02 to 08/03 2014 Mountain Arts Festival Woodland Park, CO
05/01/2014 05/03 to 05/03 2014 Kayak/ Canoe Race & Duck Race & Riverfest Beacon Falls, CT
05/01/2014 06/14 to 06/14 2014 Fourth Oxford Day Oxford, CT
05/01/2014 06/05 to 06/08 2014 Blast From the Bayou Preston, CT
05/01/2014 05/29 to 06/01 2014 Strawberry Park Bluegrass Festival Preston, CT
05/01/2014 05/17 to 05/17 2014 Artzfest Thomaston, CT
05/01/2014 05/03 to 05/03 2014 Vernon Arts and Crafts Show Vernon, CT
05/01/2014 05/31 to 05/31 2014 Night Out On Main Street Watertown, CT
05/01/2014 05/24 to 05/25 52014 Bowers Beach Buccaneer Bash Bowers, DE
05/01/2014 05/10 to 05/10 2014 Delaware Marathon Expo Wilmington, DE
05/01/2014 05/03 to 05/03 2014 Spring Flea Market Wilmington, DE
05/01/2014 06/06 to 06/06 2014 Trolley Bazaar Wilmington, DE
05/01/2014 05/24 to 05/24 2014 Bay Life Car and Craft Show Brandon, FL
05/01/2014 06/05 to 06/07 2014 Billy Bowlegs Pirate Festival Fort Walton Beach, FL
05/01/2014 06/21 to 06/21 2014 Polk County Sports Festival Lakeland, FL
05/01/2014 05/17 to 05/18 2014 Scott's Zellwood Sweet Corn Jamboree Mount Dora, FL
05/01/2014 05/08 to 05/08 2014 Hogs and Grogs - May Panama City, FL
05/01/2014 07/19 to 07/20 2014 Cool Art Show Saint Petersburg, FL
05/01/2014 05/17 to 05/18 2014 Flea Market & Collectables Fair - May Sarasota, FL
05/01/2014 05/17 to 05/17 2014 Dogs Day Out - Mango Dog Park Seffner, FL
05/01/2014 05/02 to 05/04 2014 North Point Mall Mother's Day Tea and Gift Show Alpharetta, GA
05/01/2014 06/26 to 06/29 2014 National Black Arts Festival Harlem Fine Arts Show Atlanta, GA
05/01/2014 05/17 to 05/18 2014 Gibbs Garden Color Of Spring Ballground, GA
05/01/2014 09/27 to 09/28 2014 Riverfest Arts and Crafts Festival Canton, GA
05/01/2014 05/17 to 05/17 2014 Mountain Laurel Festival Clarkesville, GA
05/01/2014 05/10 to 05/10 2014 Fifth Dog Days of McDonough Mcdonough, GA
05/01/2014 05/17 to 05/17 2014 Morven Peach Festival Morven, GA
05/01/2014 05/10 to 05/10 2014 Peacock Day Festival Pavo, GA
05/01/2014 06/14 to 06/15 2014 Peachtree Corners Festival Peachtree Corners, GA
05/01/2014 07/04 to 07/06 2014 River Street Fourth of July Celebration Savannah, GA
05/01/2014 05/03 to 05/03 2014 Woofstock Suwanee, GA
05/01/2014 05/10 to 05/11 2014 Mothers Day at Brasstown Valley Resort Young Harris, GA
05/01/2014 07/13 to 07/13 2014 Garden Art Fair Ames, IA
05/01/2014 09/12 to 09/14 2014 Garden Quilt Fair Ames, IA
05/01/2014 07/12 to 07/12 2014 Plum Creek Art Festival Fredericksburg, IA
05/01/2014 05/16 to 05/16 2014 Indianola Bike Night - May Indianola, IA
05/01/2014 07/03 to 07/05 2014 Iowa City Jazz Festival Iowa City, IA
05/01/2014 06/14 to 06/14 2014 Macnider Arts Festival Mason City, IA
05/01/2014 05/23 to 05/24 2014 North Iowa Band Fest Marketplace Mason City, IA
05/01/2014 07/16 to 07/22 2014 Great Jones County Fair Monticello, IA
05/01/2014 08/30 to 08/31 2014 Art Center's ArtSplash Sioux City, IA
05/01/2014 08/30 to 09/06 2014 Eastern Idaho State Fair Blackfoot, ID
05/01/2014 06/07 to 06/08 2014 Boise Stage Stop Summer Fest Boise, ID
05/01/2014 05/12 to 05/19 2014 Payette Apple Blossom Festival Payette, ID
05/01/2014 05/10 to 05/10 2014 Northern Pacific Depot Day Festival Wallace, ID
05/01/2014 06/07 to 06/07 2014 Art in the Park Bourbonnais, IL
05/01/2014 05/24 to 05/25 2014 Indie Designer Market Chicago, IL
05/01/2014 07/03 to 07/06 2014 International Festival of Life Chicago Downtown, IL
05/01/2014 06/19 to 06/22 2014 Rotary Grovefest Downers Grove, IL
05/01/2014 08/22 to 08/24 2014 Midwest Salute to the Arts Fairview Heights, IL
05/01/2014 08/09 to 08/10 2014 Market House Square Arts Festival Galena, IL
05/01/2014 05/03 to 05/03 2014 Red Carpet Route 66 Car Cruise to Park Godley, IL
05/01/2014 07/05 to 07/06 2014 Northwest Fourth-Fest Arts & Crafts Fair Hoffman Estates, IL
05/01/2014 07/03 to 07/05 2014 Eyes to the Skies Festival Lisle, IL
05/01/2014 06/13 to 06/15 2014 Lockport Old Canal Days Festival Lockport, IL
05/01/2014 06/20 to 06/22 2014 Long Grove Strawberry Festival Long Grove, IL
05/01/2014 06/07 to 06/08 2014 Gebhard Woods Dulcimer and Traditional Music Fest Morris, IL
05/01/2014 06/14 to 06/15 2014 Park Ridge Art League's Outdoor Fair Park Ridge, IL
05/01/2014 06/06 to 06/08 2014 Luthy Botanical Garden Craft and Plant Sale Peoria, IL
05/01/2014 06/28 to 06/29 2014 Rhapsody in Bloom Art Fest Peoria, IL
05/01/2014 06/12 to 06/14 2014 Steamboat Days Peoria, IL
05/01/2014 05/24 to 05/24 2014 Health Awareness & Vendor Jam Richton Park, IL
05/01/2014 08/07 to 08/17 2014 Illinois State Fair Springfield, IL
05/01/2014 06/14 to 06/14 2014 Vogt Visual Arts Center Art Show and Sale Tinley Park, IL
05/01/2014 06/07 to 06/07 2014 Dandelion Wine Fine Arts Festival Waukegan, IL
05/01/2014 06/13 to 06/15 2014 Crawfordsville Strawberry Festival Crawfordsville, IN
05/01/2014 06/06 to 06/07 2014 Hoosier Hills Fiber Festival Franklin, IN
05/01/2014 06/06 to 06/08 2014 Goodgals Gallery Arts & Crafts Show Indianapolis, IN
05/01/2014 07/03 to 07/05 2014 Haynes Apperson Festival Kokomo, IN
05/01/2014 05/29 to 05/31 2014 John Hartford Memorial Festival Morgantown, IN
05/01/2014 06/03 to 06/07 2014 New Haven Canal Days Festival New Haven, IN
05/01/2014 06/23 to 06/27 2014 Fortieth Topeka/Honeyville Quilt Show & Sale Topeka, IN
05/01/2014 05/23 to 05/26 2014 Steam Corner Antique Power Show Veedersburg, IN
05/01/2014 06/25 to 06/29 2014 Charley Creek Arts Fest Wabash, IN
05/01/2014 05/09 to 05/11 2014 Sunflower Balloon Fest Anthony, KS
05/01/2014 05/22 to 05/24 2014 Caney Mayfest Caney, KS
05/01/2014 05/02 to 05/03 2014 Cherry Blossom Festival Cherryvale, KS
05/01/2014 07/02 to 07/05 2014 Sundown Salute Junction City, KS
05/01/2014 06/18 to 06/21 2014 John Brown Jamboree Osawatomie, KS
05/01/2014 09/17 to 09/21 2014 Walnut Valley Festival Winfield, KS
05/01/2014 05/16 to 05/17 2014 Apple Blossom Festival Elkhorn, KY
05/01/2014 05/01 to 05/03 2014 Highway 421 Yard Sale Harlan, KY
05/01/2014 05/22 to 05/25 2014 Kentucky Mountain Laurel Festival Pineville, KY
05/01/2014 05/08 to 05/11 2014 Cochon de Lait Festival Mansura, LA
05/01/2014 06/27 to 06/28 2014 Louisiana Peach Festival Presented by Squire Creek Ruston, LA
05/01/2014 05/17 to 05/17 2014 Spring Festival Ashby, MA
05/01/2014 05/17 to 05/18 2014 First Parish Bedford Plant & Craft Fair Bedford, MA
05/01/2014 05/18 to 05/18 2014 Sixth Arts Festival Canton, MA
05/01/2014 05/10 to 05/11 2014 Kids' Fun Fest Newton, MA
05/01/2014 05/15 to 05/15 2014 Third Thursday Pittsfield, MA
05/01/2014 10/18 to 10/18 2014 One Hundred Thirteenth Harvest Craft Fair Sudbury, MA
05/01/2014 11/21 to 11/22 2014 Sleigh Bell Holiday Craft Fair Wenham, MA
05/01/2014 05/23 to 05/26 2014 Balticon: Maryland Regional Science Fiction Con Baltimore, MD
05/01/2014 05/31 to 06/01 2014 Charles Village Festival Baltimore, MD
05/01/2014 06/20 to 06/21 2014 Delmarva Chicken Festival Centreville, MD
05/01/2014 06/07 to 06/08 2014 Karmafest - 2014 - The Big Show Cockeysville, MD
05/01/2014 05/31 to 05/31 2014 Maryland Craft Beer Festival Frederick, MD
05/01/2014 06/07 to 06/08 2014 Celtic Festival Havre de Grace, MD
05/01/2014 07/06 to 07/06 2014 Summer Fun Day W/ Lawnmower Races & Classy Car Show Havre de Grace, MD
05/01/2014 06/21 to 06/21 2014 Summertime Blues Festival Havre de Grace, MD
05/01/2014 05/17 to 05/17 2014 Piney Orchard Street Festival Odenton, MD
05/01/2014 08/20 to 08/24 2014 Blistered Fingers Family Bluegrass Festival Litchfield, ME
05/01/2014 06/18 to 06/22 2014 Blistered Fingers Family Bluegrass Festival Litchfield, ME
05/01/2014 06/14 to 06/14 2014 Margaretta Days Festival Machias, ME
05/01/2014 06/07 to 06/08 2014 Machines of Muscle Augusta, MI
05/01/2014 05/24 to 05/26 2014 May'd in Michigan Augusta, MI
05/01/2014 06/27 to 06/29 2014 Body, Mind, and Spirit Expo Birch Run, MI
05/01/2014 06/06 to 06/07 2014 Caro Cars, Crafts, Bike and Big Rig Shows Caro, MI
05/01/2014 05/30 to 06/01 2014 WYCD Detroit Downtown Hoedown Detroit, MI
05/01/2014 08/08 to 08/10 2014 Great Lakes Folk Festival East Lansing, MI
05/01/2014 06/07 to 06/07 2014 Art in the Park Flushing, MI
05/01/2014 06/14 to 06/14 2014 Spring Into Summer Craft Market Holly, MI
05/01/2014 05/16 to 05/18 2014 Jonesville Riverfest Jonesville, MI
05/01/2014 06/19 to 06/21 2014 Island Festival Kalamazoo, MI
05/01/2014 08/16 to 08/17 2014 Melvindale Street Fair Melvindale, MI
05/01/2014 08/08 to 08/10 2014 Milford Memories Summer Festival Art in the Village Milford, MI
05/01/2014 08/14 to 08/17 2014 Petoskey Festival on the Bay Petoskey, MI
05/01/2014 06/07 to 06/07 2014 June Fest Street Fair Saint Clair Shores, MI
05/01/2014 07/05 to 07/12 2014 National Cherry Festival Traverse City, MI
05/01/2014 05/17 to 05/17 2014 Ypsilanti Crafters Market Ypsilanti, MI
05/01/2014 06/25 to 06/28 2014 Norman County Fair Ada, MN
05/01/2014 06/21 to 06/22 2014 Afton Strawberry Festival Afton, MN
05/01/2014 07/04 to 07/05 2014 Art and Folk Music Festival Bemidji, MN
05/01/2014 08/01 to 08/01 2014 Braham Pie Day Braham, MN
05/01/2014 06/19 to 06/22 2014 Hennepin County Fair Corcoran, MN
05/01/2014 05/03 to 10/19 2014 Goose Lake Artisan & Farmers Market Elk River, MN
05/01/2014 09/05 to 09/07 2014 Ely's Fall Harvest Moon Festival Ely, MN
05/01/2014 07/23 to 07/27 2014 Scott County Fair Jordan, MN
05/01/2014 07/11 to 07/13 2014 Karl Oskar Days Lindstrom, MN
05/01/2014 06/29 to 06/29 2014 MN Food Truck Fair Minneapolis, MN
05/01/2014 08/08 to 08/10 2014 Twin Cities Polish Festival Minneapolis, MN
05/01/2014 08/12 to 08/17 2014 Steele County Free Fair Owatonna, MN
05/01/2014 07/26 to 07/26 2014 Pelican Rapids Art in the Park Pelican Rapids, MN
05/01/2014 05/09 to 05/10 2014 Pinecones and Cinnamon Pillager, MN
05/01/2014 08/21 to 09/01 2014 Minnesota State Fair Saint Paul, MN
05/01/2014 05/03 to 05/04 2014 Munchkin Markets Children's Consignment Sale Stillwater, MN
05/01/2014 07/16 to 07/20 2014 Pennington County Fair Thief River Falls, MN
05/01/2014 05/16 to 05/18 2014 Hermann Maifest Hermann, MO
05/01/2014 09/19 to 09/21 2014 Plaza Art Fair Kansas City, MO
05/01/2014 09/05 to 09/07 2014 Art Outside Maplewood, MO
05/01/2014 06/13 to 06/14 2014 Parkville Jazz, Blues and Fine Arts River Jam Parkville, MO
05/01/2014 05/03 to 05/03 2014 Boy Scout Troop 673 Car Show and Breakfast Warrensburg, MO
05/01/2014 06/11 to 06/15 2014 Thunder on Water Safeboating Festival Grenada, MS
05/01/2014 05/17 to 05/17 2014 A'fair in Hernando Hernando, MS
05/01/2014 07/25 to 08/01 2014 Neshoba County Fair Philadelphia, MS
05/01/2014 07/25 to 08/02 2014 Montana State Fair Great Falls, MT
05/01/2014 08/08 to 08/10 2014 Rockin' the Rivers Three Forks, MT
05/01/2014 08/08 to 08/10 2014 Huckleberry Days Whitefish, MT
05/01/2014 10/16 to 10/19 2014 Craft Fair of the Southern Highlands Asheville, NC
05/01/2014 07/04 to 07/04 2014 Fourth Of July Celebration Asheville, NC
05/01/2014 05/23 to 05/26 2014 Memorial Day Craft Show Boone, NC
05/01/2014 07/12 to 07/12 2014 Veterans Vendor Fair and Custom Car and Motorcycle Show Cary, NC
05/01/2014 05/25 to 05/25 2014 Outer Banks Beach Music Festival Corolla, NC
05/01/2014 05/10 to 05/10 2014 Hog Fest in Historic Edenton Edenton, NC
05/01/2014 05/16 to 05/18 2014 North Carolina Potato Festival Elizabeth City, NC
05/01/2014 06/27 to 07/05 2014 Faith Fourth of July Celebration Faith, NC
05/01/2014 07/04 to 07/04 2014 Fun Fourth Festival Greensboro, NC
05/01/2014 06/14 to 06/15 2014 Village Square Art & Craft Show Highlands, NC
05/01/2014 07/12 to 07/13 2014 Maggie Valley Summer Arts & Crafts Maggie Valley, NC
05/01/2014 05/17 to 05/17 2014 Race City Festival Mooresville, NC
05/01/2014 05/16 to 05/18 2014 Spring Rally at Shakori Hills Pittsboro, NC
05/01/2014 05/17 to 05/18 2014 Happening on the Common Tarboro, NC
05/01/2014 07/11 to 07/13 2014 John C. Fremont Days Festival Fremont, NE
05/01/2014 08/08 to 08/09 2014 Nebraska Balloon & Wine Festival Omaha, NE
05/01/2014 05/24 to 05/25 2014 Memorial Weekend Show North Conway, NH
05/01/2014 06/28 to 06/28 2014 Whitesbog Blueberry Festival Browns Mills, NJ
05/01/2014 05/31 to 05/31 2014 Art on the Avenue Caldwell, NJ
05/01/2014 05/17 to 05/17 2014 Bourbon Street Blues Fest Califon, NJ
05/01/2014 06/07 to 06/08 2014 Cape May Boardwalk Craft Show Cape May, NJ
05/01/2014 09/27 to 10/28 2014 North American Sea Glass Festival Cape May, NJ
05/01/2014 08/16 to 08/17 2014 Collingswood Crafts and Fine Art Festival Collingswood, NJ
05/01/2014 06/01 to 06/02 2014 Denville Rotary Street Festival Denville, NJ
05/01/2014 05/18 to 05/18 2014 Hasbrouck Heights Street Fair Hasbrouck Heights, NJ
05/01/2014 06/21 to 06/22 2014 Fifth Hereford Inlet Lighthouse Maritime Festival North Wildwood, NJ
05/01/2014 09/20 to 09/20 2014 Festival of the Sea Point Pleasant Beach, NJ
05/01/2014 06/12 to 06/14 2014 Tri-County Fair Rockaway, NJ
05/01/2014 05/29 to 06/01 2014 Saint Michael Italian Festival / SMS Italian Festival Stanhope, NJ
05/01/2014 05/17 to 05/18 2014 Fine Arts and Crafts at Verona Park Verona, NJ
05/01/2014 06/05 to 10/09 2014 Farmers Market Warren, NJ
05/01/2014 08/30 to 09/01 2014 New Mexico Wine Festival at Bernalillo Bernalillo, NM
05/01/2014 05/03 to 05/03 2014 Raton Cinco de Mayo Celebration Raton, NM
05/01/2014 06/06 to 06/08 2014 Great Carson City Lit Fest Carson City, NV
05/01/2014 05/08 to 05/11 2014 Spring Fun Fair Carson City, NV
05/01/2014 05/30 to 06/01 2014 Las Vegas Bead Renaissance Show Las Vegas, NV
05/01/2014 06/14 to 06/14 2014 Reggae in the Desert Las Vegas, NV
05/01/2014 06/07 to 06/07 2014 Attica Founders' Day Attica, NY
05/01/2014 07/22 to 07/27 2014 Saratoga County Fair Ballston Spa, NY
05/01/2014 05/31 to 05/31 2014 Southern Tier Craft Beer and BBQ Festival Big Flats, NY
05/01/2014 05/18 to 05/18 2014 Bayfest Brooklyn, NY
05/01/2014 08/12 to 08/17 2014 Herkimer County Fair Frankfort, NY
05/01/2014 07/25 to 07/27 2014 The Great American Irish Festival Frankfort, NY
05/01/2014 06/13 to 06/14 2014 Whipple City Festival Greenwich, NY
05/01/2014 11/08 to 11/09 2014 Herkimer County Arts & Crafts Fair Herkimer, NY
05/01/2014 08/03 to 08/17 2014 Old Erie Expo - August Jordan, NY
05/01/2014 07/06 to 07/20 2014 Old Erie Expo - July Jordan, NY
05/01/2014 06/01 to 06/15 2014 Old Erie Expo - June Jordan, NY
05/01/2014 10/05 to 10/19 2014 Old Erie Expo - October Jordan, NY
05/01/2014 09/07 to 09/21 2014 Old Erie Expo - September Jordan, NY
05/01/2014 06/28 to 06/29 2014 Lockport Outdoors Arts and Crafts Show Lockport, NY
05/01/2014 07/02 to 07/26 2014 Soho Photo National Photography Competition New York, NY
05/01/2014 08/02 to 08/03 2014 Glorious Garlic Festival Penn Yan, NY
05/01/2014 10/18 to 10/19 2014 NYS Sheep & Wool Family Festival Rhinebeck, NY
05/01/2014 08/09 to 08/09 2014 Call 9-1-1 Chili Cook Off and Street Fair/ Mysic Fest Suffern, NY
05/01/2014 05/24 to 05/25 2014 PLUS Polish Festival Tappan, NY
05/01/2014 06/01 to 06/01 2014 Tarrytown Craft & Food Street Fair Tarrytown, NY
05/01/2014 08/01 to 08/02 2014 Berlin Heights Basket Festival Berlin Heights, OH
05/01/2014 05/10 to 05/10 2014 Bluffton Arts and Crafts Festival Bluffton, OH
05/01/2014 07/18 to 08/04 2014 Pro Football Hall of Fame Enshrinement Festival Canton, OH
05/01/2014 06/14 to 06/14 2014 Bridges, Bikes & Blues Eaton, OH
05/01/2014 05/04 to 05/04 2014 Herb Faire Eaton, OH
05/01/2014 05/10 to 05/10 2014 Gahanna's May Herb Day Gahanna, OH
05/01/2014 08/23 to 08/24 2014 Art on the Green Hudson, OH
05/01/2014 11/01 to 11/01 2014 Loveland High School Arts & Crafts Expo Loveland, OH
05/01/2014 06/29 to 06/29 2014 Wildwood Fine Arts Festival Mentor, OH
05/01/2014 08/07 to 08/10 2014 Dan Emmett Music and Arts Festival Mount Vernon, OH
05/01/2014 05/17 to 05/18 2014 Caesar's Creek Spring Gathering Waynesville, OH
05/01/2014 06/06 to 06/14 2014 OK Mozart International Festival Bartlesville, OK
05/01/2014 05/24 to 05/24 2014 Bethany 66 Festival Bethany, OK
05/01/2014 05/09 to 05/10 2014 Rooster Days Rodeo Broken Arrow, OK
05/01/2014 05/02 to 05/03 2014 Antique/Craft Show & OK 100 Mile Yard Sale Cleveland, OK
05/01/2014 05/17 to 05/17 2014 Market On Main Skiatook, OK
05/01/2014 06/05 to 06/07 2014 Tallgrass Music Festival Skiatook, OK
05/01/2014 06/21 to 06/21 2014 Cambridge Arts Festival Cambridge, ON
05/01/2014 09/18 to 09/21 2014 Richmond Fair Richmond, ON
05/01/2014 08/22 to 08/24 2014 Winona Peach Festival Stoney Creek, ON
05/01/2014 05/10 to 05/10 2014 Thorold's Art and Craft Show Thorold, ON
05/01/2014 06/06 to 06/08 2014 Unionville Festival Unionville, ON
05/01/2014 07/04 to 07/04 2014 Bend Old Fashioned July 4th Celebration Bend, OR
05/01/2014 05/30 to 06/01 2014 Canby Wine, Food and Brew Canby, OR
05/01/2014 09/27 to 09/28 2014 Corvallis Fall Festival Corvallis, OR
05/01/2014 05/16 to 05/18 2014 Florence Rhododendron Festival Florence, OR
05/01/2014 07/22 to 07/27 2014 Sixty-Ninth Chief Joseph Days Joseph, OR
05/01/2014 08/07 to 08/10 2014 Junction City Scandinavian Festival Junction City, OR
05/01/2014 05/15 to 05/18 2014 Keizer Iris Festival Keizer, OR
05/01/2014 05/03 to 05/03 2014 Merlin Community Park Craft Fair Merlin, OR
05/01/2014 07/12 to 07/13 2014 America's Largest Antique & Collectible Show Portland, OR
05/01/2014 07/09 to 07/12 2014 Crooked River Roundup Horse Races Prineville, OR
05/01/2014 06/27 to 06/29 2014 Crooked River Roundup PRCA Rodeo Prineville, OR
05/01/2014 06/14 to 06/14 2014 Cruisin' Sherwood Custom Car Show Sherwood, OR
05/01/2014 06/14 to 06/15 2014 Sisters Art in the Park Sisters, OR
05/01/2014 07/04 to 07/06 2014 Ellwood City Arts, Crafts and Food Festival Ellwood City, PA
05/01/2014 06/08 to 06/08 2014 Billtown Blues Festival Hughesville, PA
05/01/2014 05/31 to 05/31 2014 Huntingdon Valley Festival of the Arts Huntingdon Valley, PA
05/01/2014 08/03 to 08/09 2014 Union County West End Fair Laurelton, PA
05/01/2014 05/03 to 05/03 2014 Lebanon Spring Crafts Festival Lebanon, PA
05/01/2014 06/06 to 06/07 2014 Que For the Troops Levittown, PA
05/01/2014 07/26 to 07/26 2014 Lititz Outdoor Fine Art Show Lititz, PA
05/01/2014 06/14 to 06/14 2014 Flag Festival Philadelphia, PA
05/01/2014 05/17 to 05/17 2014 Summerfest, Arts & Crafts, & Benefit Auction Quakertown, PA
05/01/2014 05/10 to 05/11 2014 Victorian Carriage Shops' Skippack Spring Fest Skippack, PA
05/01/2014 06/14 to 06/14 2014 Clover Scottish Games & Scotch-Irish Festival Clover, SC
05/01/2014 06/21 to 06/21 2014 Ridge Peach Festival Trenton, SC
05/01/2014 06/01 to 08/10 2014 Red Cloud Indian Art Show Pine Ridge, SD
05/01/2014 05/09 to 05/10 2014 New Midland Plaza Spring Arts & Crafts Fair Alcoa, TN
05/01/2014 06/24 to 06/28 2014 Ashland City Summerfest Ashland City, TN
05/01/2014 06/21 to 06/21 2014 RC and Moon Pie Festival Bell Buckle, TN
05/01/2014 05/24 to 05/24 2014 Exit 56 Blues Fest Brownsville, TN
05/01/2014 05/17 to 05/18 2014 Twentieth Iris Festival Greeneville, TN
05/01/2014 06/07 to 06/07 2014 Art of Compassion Arts Festival Jackson, TN
05/01/2014 06/07 to 06/07 2014 Folk Medicine Festival Red Boiling Springs, TN
05/01/2014 06/21 to 06/22 2014 Roan Mountain Rhododendron Festival Roan Mountain, TN
05/01/2014 05/22 to 05/24 2014 Spring Fun Show Shelbyville, TN
05/01/2014 07/04 to 07/05 2014 Smithville Fiddlers' Jamboree and Crafts Festival Smithville, TN
05/01/2014 05/10 to 05/10 2014 Pine Street Market Days - May Bastrop, TX
05/01/2014 05/17 to 05/18 2014 Spring Arts Market Friendswood, TX
05/01/2014 05/24 to 05/26 2014 Lavender Ridge Farms Lavender Festival Gainesville, TX
05/01/2014 05/15 to 05/17 2014 Lee County Fair Giddings, TX
05/01/2014 05/08 to 05/11 2014 Marble Falls Mayfest Marble Falls, TX
05/01/2014 05/10 to 05/10 2014 Market Day Marble Falls, TX
05/01/2014 05/16 to 05/18 2014 Pasadena Strawberry Festival Pasadena, TX
05/01/2014 05/10 to 05/10 1014 Mayfest Springtown, TX
05/01/2014 05/09 to 05/10 2014 Bloomin' Temple Festival Temple, TX
05/01/2014 10/17 to 10/19 2014 Yorktown Western Days Yorktown, TX
05/01/2014 05/10 to 05/10 2014 Draper City Arts and Crafts Festival Draper, UT
05/01/2014 05/07 to 05/10 2014 Simple Treasures Mother's Day Boutique Farmington, UT
05/01/2014 05/03 to 05/31 2014 Tuacahn Saturday Market - May Ivins, UT
05/01/2014 08/07 to 08/09 2014 Cache County Fair Logan, UT
05/01/2014 05/24 to 05/25 2014 Moab Arts Festival Moab, UT
05/01/2014 06/19 to 06/22 2014 Westfest West Valley City, UT
05/01/2014 08/01 to 08/02 2014 Steppin' Out Blacksburg, VA
05/01/2014 09/20 to 09/21 2014 Bluemont Fair Bluemont, VA
05/01/2014 05/10 to 05/10 2014 Big Lake Flea Market Clarksville, VA
05/01/2014 06/06 to 06/08 2014 Celebrate Fairfax! Fairfax, VA
05/01/2014 05/16 to 05/18 2014 Fredericksburg Greek Festival Fredericksburg, VA
05/01/2014 05/23 to 05/27 2014 Thunder For the Cause Fredericksburg, VA
05/01/2014 05/23 to 05/25 2014 Virginia Women's Music Festival Henrico, VA
05/01/2014 05/24 to 05/25 2014 Lucy's Weekend at Cooper Vineyards Louisa, VA
05/01/2014 05/23 to 05/25 2014 Festival in the Park Fine Arts & Crafts Show Roanoke, VA
05/01/2014 08/30 to 08/31 2014 Virginia Scottish Games The Plains, VA
05/01/2014 06/02 to 06/08 2014 Upperville Colt & Horse Show Upperville, VA
05/01/2014 05/24 to 05/26 2014 Viva Vienna Vienna, VA
05/01/2014 05/10 to 05/10 2014 Wine and Trotter Festival Woodstock, VA
05/01/2014 08/31 to 08/31 2014 New World Festival Randolph, VT
05/01/2014 07/04 to 07/04 2014 An Old Fashioned Fourth Blaine, WA
05/01/2014 08/08 to 08/10 2014 A Taste of Edmonds Edmonds, WA
05/01/2014 06/07 to 06/08 2014 Maritime Gig Festival Gig Harbor, WA
05/01/2014 07/10 to 07/12 2015 Westport Kite Festival Grayland, WA
05/01/2014 06/14 to 06/15 2014 Seattle Summer Market Kirkland, WA
05/01/2014 06/14 to 06/15 2014 Northwest Garlic Festival Ocean Park, WA
05/01/2014 05/10 to 05/11 2014 Rhododendron Arts and Crafts Fair Port Townsend, WA
05/01/2014 06/07 to 06/07 2014 Reardan Mule Days Reardan, WA
05/01/2014 07/19 to 07/20 2014 Alki Art Fair Seattle, WA
05/01/2014 06/20 to 06/22 2014 The Craft Winefest - Vancouver USA Vancouver, WA
05/01/2014 06/21 to 06/22 2014 Sweet Onion Festival Walla Walla, WA
05/01/2014 10/03 to 10/05 2014 Bayfield Apple Festival Bayfield, WI
05/01/2014 07/19 to 07/20 2014 Bayfield Festival of Arts Bayfield, WI
05/01/2014 05/03 to 05/03 2014 Entrepreneur/Open Market Caledonia, WI
05/01/2014 06/28 to 06/29 2014 Ozaukee Art Center Strawberry Festival of Fine Arts Cedarburg, WI
05/01/2014 06/14 to 06/14 2014 Celebration of Arts and Crafts Cumberland, WI
05/01/2014 08/27 to 09/01 2014 Walworth County Fair Elkhorn, WI
05/01/2014 06/20 to 06/22 2014 Ellsworth Cheese Curd Festival Ellsworth, WI
05/01/2014 05/09 to 05/11 2014 Yonder Way Spring Sale Ellsworth, WI
05/01/2014 05/31 to 05/31 2014 Chocolate Fest Hortonville, WI
05/01/2014 07/20 to 07/20 2014 Friends of the Museums Art Fair Kenosha, WI
05/01/2014 07/19 to 07/19 2014 Lake Mills Arts Festival Lake Mills, WI
05/01/2014 05/04 to 05/04 2014 Mother's Day Gifts Galore Craft & Vendor Fair Menomonee Falls, WI
05/01/2014 05/17 to 05/18 2014 Muscoda Morel Mushroom Festival Muscoda, WI
05/01/2014 05/03 to 05/03 2014 Natural Product & Organic Food Expo Oshkosh, WI
05/01/2014 08/28 to 09/01 2014 Sheboygan County Fair Plymouth, WI
05/01/2014 08/03 to 08/03 2014 Racine Starving Artist Outdoor Art Fair Racine, WI
05/01/2014 10/04 to 10/05 2014 Shawano Country Miles of Art Shawano, WI
05/01/2014 06/05 to 06/08 2014 Sparta Butterfest Sparta, WI
05/01/2014 06/20 to 06/22 2014 Mid-Ohio Valley Multi-Cultural Festival Parkersburg, WV
05/01/2014 06/13 to 06/15 2014 Ronceverte River Festival Ronceverte, WV
05/01/2014 07/25 to 07/27 2014 Upper Ohio Valley Italian Festival Wheeling, WV
05/01/2014 08/08 to 08/10 2014 Grand Targhee Bluegrass Festival Alta, WY
05/01/2014 07/25 to 07/27 2014 Art Show at Teton Village Teton Village, WY
05/01/2013 09/20 to 09/29 2013 Oktoberfest Denver Denver, CO
05/01/2013 09/07 to 09/07 2013 Bethany Beach Boardwalk Art Festival Bethany Beach, DE
05/01/2013 09/28 to 09/29 2013 Carmel International Arts Festival Carmel, IN
05/01/2013 10/05 to 10/06 2013 Apple Festival of Kendallville Kendallville, IN
05/01/2013 09/06 to 09/08 2013 Huff 'n Puff Hot Air Balloon Rally Topeka, KS
05/01/2013 09/07 to 09/08 2013 Old Creamery Arts and Crafts Show Rice, MN
05/01/2013 10/01 to 10/31 2013 Watermedia 2013 Bigfork, MT
05/01/2013 09/28 to 09/29 2013 Sheyenne Valley Arts and Crafts Festival Fort Ransom, ND
05/01/2013 10/05 to 10/06 2013 World's Largest Garage Sale Warrensburg, NY
05/01/2013 09/14 to 09/14 2013 Window on the Arts Windsor, NY
05/01/2013 09/07 to 09/08 2013 Antiques In The Woods Columbiana, OH
05/01/2013 11/15 to 11/17 2013 Markham Home For the Holidays Markham, ON
05/01/2013 09/25 to 09/29 2013 Gallery at First UU Richmond, VA
05/01/2013 11/09 to 11/09 2013 Saint Agnes Holly Fair Butler, WI
05/01/2013 10/12 to 10/13 2013 Town Line Art Fair Ephraim, WI
05/02/2014 06/06 to 06/07 2014 9-1-1 Festival Haleyville, AL
05/02/2014 07/04 to 07/04 2014 Fourth of July Community Festival and Fireworks Show Fullerton, CA
05/02/2014 05/13 to 05/27 2014 Yosemite Anniversary Photography Exhibition Madera, CA
05/02/2014 07/31 to 08/03 2014 Mammoth Festival of Beers & Bluesapalooza Mammoth Lakes, CA
05/02/2014 05/17 to 05/17 2014 Erie Town Fair & Balloon Festival Erie, CO
05/02/2014 05/17 to 05/17 2014 Lochbuie Fortieth Celebration Lochbuie, CO
05/02/2014 05/03 to 05/03 2014 Tag Sale Flea Market Stamford, CT
05/02/2014 05/31 to 05/31 2014 Wethersfield Fireworks! Wethersfield, CT
05/02/2014 05/16 to 05/18 2014 Redland International Orchid Show Homestead, FL
05/02/2014 05/23 to 05/25 2014 Oldsmar Freedom Fest Oldsmar, FL
05/02/2014 05/03 to 05/03 2014 Craft Club of Sebastian, Inc, May Show Sebastian, FL
05/02/2014 08/30 to 08/30 2014 Latimer Hall Arts and Craft Show Woodstock, GA
05/02/2014 09/06 to 09/07 2014 Fall Festival of the Arts Oak Brook, IL
05/02/2014 06/07 to 06/07 2014 Tower Park Art Festival Peoria Heights, IL
05/02/2014 05/04 to 05/04 2014 Mother's Day Is Almost Here Shop For Mom Schaumburg, IL
05/02/2014 05/03 to 05/03 2014 Mommy & Me Craft & Vendor Fundraiser Gary, IN
05/02/2014 05/17 to 05/17 2014 Turkey Creek Festival Summertime Arts & Crafts Show Merriam, KS
05/02/2014 05/17 to 05/17 2014 Kentucky Wine & Vine Fest Nicholasville, KY
05/02/2014 05/10 to 05/10 2014 Harvard Apple Blossom Festival Harvard, MA
05/02/2014 05/09 to 05/10 2014 Somerset Strawberry Festival Marion Station, MD
05/02/2014 06/20 to 06/21 2014 Jubilee Craft Show Williamston, MI
05/02/2014 07/26 to 07/27 2014 Alexandria Art in the Park Alexandria, MN
05/02/2014 05/03 to 05/03 2014 Fifth Women's Boutique Bradford, MN
05/02/2014 06/06 to 06/08 2014 Farmington Country Days Farmington, MO
05/02/2014 06/13 to 06/14 2014 Fifteenth Art in the Park Visual Art Show and Sale Saint Joseph, MO
05/02/2014 05/17 to 05/17 2014 The Square Affair Carthage, MS
05/02/2014 05/03 to 05/04 2014 Repticon Jackson Reptile & Exotic Animal Show Jackson, MS
05/02/2014 11/08 to 11/08 2014 Christmas Craft Fair Plaistow, NH
05/02/2014 05/03 to 05/03 2014 Outdoor Community Market Burlington, NJ
05/02/2014 05/17 to 05/18 2014 West Windsor Renaissance Faire West Windsor, NJ
05/02/2014 05/29 to 06/01 2014 NJ Greek Fest (the Westfield Greek Festival) Westfield, NJ
05/02/2014 05/11 to 05/11 2014 The Rastro of Reno Reno, NV
05/02/2014 05/03 to 05/04 2014 Spring Antique Fair and Flea Market Greenwich, NY
05/02/2014 05/10 to 05/10 2014 Craft Show and Silent Auction Rochester, NY
05/02/2014 05/24 to 05/24 2014 Tannersville Rubber Duck Race, Crazy Boat Race & Fest Tannersville, NY
05/02/2014 08/31 to 08/31 2014 Vine Arts Show Avon Lake, OH
05/02/2014 05/10 to 05/10 2014 Stilwell Strawberry Festival Stilwell, OK
05/02/2014 05/24 to 05/24 2014 Spring Festival Dallas, TX
05/02/2014 05/17 to 05/17 2014 Red White & Bayou Crawfish & Texas Music Festival Dickinson, TX
05/02/2014 05/03 to 05/03 2014 Cinco De Mayo Celebration Fort Davis, TX
05/02/2014 05/02 to 05/04 2014 Forty-Third Howdy Roo Marble Falls, TX
05/02/2014 05/03 to 05/03 2014 Post Trade Days - May Post, TX
05/02/2014 05/10 to 05/10 2014 Wild West Watauga Fest Watauga, TX
05/02/2014 05/23 to 05/24 2014 Utah Pasifika Festival Provo, UT
05/02/2014 06/02 to 06/07 2014 VA-KY District Fair and Horse Show Wise, VA
05/02/2014 09/05 to 09/07 2014 Arts in Action Port Angeles, WA
05/02/2014 07/12 to 07/12 2014 Wisconsin Lutheran College Art & Craft Fair Milwaukee, WI
05/03/2015 05/16 to 05/17 2015 Kingsburg Swedish Festival Kingsburg, CA
05/03/2014 05/09 to 05/10 2014 Cullman Strawberryfest Cullman, AL
05/03/2014 05/02 to 05/11 2014 Central Mall Unique Collectibles & Hand-Made Crafts Fort Smith, AR
05/03/2014 05/31 to 05/31 2014 John Muir Festival Coulterville, CA
05/03/2014 06/21 to 06/22 2014 San Diego Summer Market San Diego, CA
05/03/2014 06/28 to 06/28 2014 Summertime Bliss Vendor Fair Santa Rosa, CA
05/03/2014 05/07 to 05/11 2014 Enfield Mother's Day Craft and Gift Show Enfield, CT
05/03/2014 05/04 to 05/04 2014 Shelton Spring Craft Festival Shelton, CT
05/03/2014 05/03 to 05/31 2014 Milford Farmers Market - May Milford, DE
05/03/2014 05/17 to 05/17 2014 Newberry Watermelon Festival Newberry, FL
05/03/2014 05/10 to 05/10 2014 Arundel High Spring Outdoor Flea Market Gambrills, MD
05/03/2014 05/15 to 05/18 2014 National Morel Mushroom Festival Boyne City, MI
05/03/2014 05/03 to 05/04 2014 Elk River Spring Arts and Crafts Fair Elk River, MN
05/03/2014 05/17 to 05/17 2014 Crafter's Corner Spring Craft Show Smithville, MO
05/03/2014 05/02 to 05/04 2014 Smoke in the Valley Music, Motorsports and BBQ Festival Morganton, NC
05/03/2014 05/17 to 05/17 2014 Strawberry Festival Taylorsville, NC
05/03/2014 05/10 to 05/10 2014 Ninth Indoor/Outdoor Craft & Vendor Show & Pet Adoption Ringwood, NJ
05/03/2014 05/02 to 05/04 2014 Smokey Bear Days Capitan, NM
05/03/2014 05/04 to 05/04 2014 New City Street Festival New City, NY
05/03/2014 06/14 to 06/14 2014 Historic Old Annville Day Annville, PA
05/03/2014 05/09 to 05/10 2014 Pamperfest Coraopolis, PA
05/03/2014 05/17 to 05/17 2014 Denton County Farm & Garden Expo Denton, TX
05/03/2014 05/10 to 05/10 2014 Goliad Market Days - May Goliad, TX
05/03/2014 09/11 to 09/14 2014 Grapefest Grapevine, TX
05/03/2014 05/23 to 05/23 2014 Bike the Bricks Mckinney, TX
05/03/2014 05/17 to 05/18 2014 Elma County Home and Garden Show Elma, WA
05/03/2014 05/10 to 05/10 2014 Mother's Day Craft/vendor Affair Menasha, WI
05/03/2013 05/03 to 05/03 2014 Allaire Village Spring Crafters' Market Farmingdale, NJ
05/04/2014 07/03 to 07/04 2014 Fourth of July Festival / Mount Marathon Race Seward, AK
05/04/2014 06/07 to 06/07 2014 Greater Valley Juneteenth Lanett, AL
05/04/2014 07/12 to 07/13 2014 Squaw Valley Art, Wine and Music Festival Olympic Valley, CA
05/04/2014 06/18 to 06/21 2015 Country Jam USA - Grand Junction Grand Junction, CO
05/04/2014 08/09 to 08/10 2014 Sweet Auburn Music Fest Atlanta, GA
05/04/2014 08/02 to 08/02 2014 Art in the Park Arnolds Park, IA
05/04/2014 07/02 to 07/04 2014 Border Days Fourth of July Celebration Grangeville, ID
05/04/2014 10/11 to 10/11 2014 Windy City BBQ Classic Chicago, IL
05/04/2014 05/18 to 05/18 2014 The Buzz Shoppe Woodstock, IL
05/04/2014 06/07 to 06/07 2014 Westminster Art in the Park Westminster, MD
05/04/2014 05/10 to 07/03 2014 Fishing the Ocean For Art Morehead City, NC
05/04/2014 07/03 to 07/04 2014 Red White and Blue Riverfront Festival Corvallis, OR
05/04/2014 05/23 to 05/24 2014 Ware Shoals Catfish Feastival Ware Shoals, SC
05/04/2014 07/17 to 07/19 2014 Country Jam USA - Eau Claire Eau Claire, WI
05/04/2014 05/10 to 05/10 2014 Gateway to the Arts Kewaskum, WI
05/04/2013 05/04 to 05/04 2014 Hometown Craft Show Tamaqua, PA
05/04/2013 05/17 to 05/17 2014 Columbia Black Expo Columbia, SC
05/04/2013 05/03 to 05/04 2014 Spring Vermont Antiques Expo & Sale Essex Junction, VT
05/05/2015 07/25 to 07/26 2015 Hertitage Festival of Arts Sigourney, IA
05/05/2015 05/09 to 05/09 2015 Wings and Wheels Air Festival Winnsboro, SC
05/05/2014 05/10 to 05/10 2014 Dogwood Days Festival Horseshoe Bend, AR
05/05/2014 08/07 to 08/30 2014 Cross Currents: Exhibition of California Artists Alameda, CA
05/05/2014 06/08 to 06/08 2014 Haight-Ashbury Street Fair San Francisco, CA
05/05/2014 05/31 to 06/01 2014 Family Fest Miami, FL
05/05/2014 06/07 to 06/07 2014 Miami/Bahamas Goombay Festival in Coconut Grove Miami, FL
05/05/2014 06/07 to 06/01 2014 Market Day on the Square - June Newnan, GA
05/05/2014 05/10 to 05/10 2014 FS PTSA Arts & Crafts Fair Ferndale, MI
05/05/2014 05/17 to 05/18 2014 Saint Paul Women's Life and Style Expo Saint Paul, MN
05/05/2014 05/10 to 05/10 2014 Mother's Day Off - Spa Party Bridgeton, MO
05/05/2014 09/19 to 09/21 2014 Mosaics Missouri Festival For the Arts Saint Charles, MO
05/05/2014 07/12 to 07/13 2014 Festival on the Square Hayesville, NC
05/05/2014 05/17 to 05/18 2014 Fire on the Water Festival Atlantic City, NJ
05/05/2014 05/24 to 05/24 2014 Sixth Rockfest West Windsor, NJ
05/05/2014 05/16 to 09/05 2014 Los Alamos Summer Concert Series Los Alamos, NM
05/05/2014 05/09 to 05/11 2014 Amargosa Days Amargosa Valley, NV
05/05/2014 06/06 to 06/08 2014 Eurofest Reno, NV
05/05/2014 05/10 to 05/10 2014 Harvestfest 2014 Mount Pocono, PA
05/05/2014 05/17 to 05/17 2014 Trenton Avenue Arts Festival Philadelphia, PA
05/05/2014 05/10 to 05/11 2014 Spring Fling Vendors Fair Burnet, TX
05/05/2014 06/07 to 06/08 2014 Houston Beer Festival Houston, TX
05/05/2014 06/20 to 06/22 2014 An Affair of the Heart - San Antonio San Antonio, TX
05/05/2014 05/31 to 06/01 2014 Virginia Regional Festival of Flight Suffolk, VA
05/05/2014 06/14 to 06/15 2014 Hayloft Gallery Art Fair & Art in the Barns Concert Oregon, WI
05/06/2015 05/15 to 05/16 2015 Twenty-Fifth Acorn Festival Four Oaks, NC
05/06/2014 06/20 to 06/22 2014 Heavenly Village Fine Arts Festival South Lake Tahoe, CA
05/06/2014 06/06 to 06/08 2014 Story City Scandinavian Days Story City, IA
05/06/2014 05/08 to 05/08 2014 Mother's Day Ladies Night Event Elmhurst, IL
05/06/2014 09/21 to 09/21 2014 Art on The Wabash: A Local Juried Art Show West Lafayette, IN
05/06/2014 05/10 to 05/10 2014 Franklin Carr Memorial Iris Festival & Garden Show Bordentown, NJ
05/06/2014 05/10 to 05/10 2014 'tis a Spring Thing Troy, PA
05/06/2014 05/17 to 05/17 2014 Gov. Pothier Touch-A-Truck and Craft Fair Fundraiser Woonsocket, RI
05/06/2014 05/09 to 05/11 2014 Second Weekend Trade Days Cresson, TX
05/07/2014 05/18 to 05/20 2014 Riverchase Galleria's Women and Kids Expo Birmingham, AL
05/07/2014 05/17 to 05/18 2014 Mentone Rhododendron Festival Mentone, AL
05/07/2014 05/16 to 05/17 2014 Fresno Pirate Festival Fresno, CA
05/07/2014 06/07 to 06/07 2014 The Beerfest Santa Rosa, CA
05/07/2014 06/13 to 06/15 2014 Taste of Randolph Street Chicago, IL
05/07/2014 07/09 to 07/11 2014 Sidewalk Days Festival Duluth, MN
05/07/2014 05/10 to 05/10 2014 Glitz & Glam Mother's Day Gala Saint Louis, MO
05/07/2014 05/09 to 05/11 2014 Just For MOM Gift and Craft Expo Johnstown, PA
05/07/2014 05/17 to 05/17 2014 Uhuru Flea Market - May Philadelphia, PA
05/07/2014 05/10 to 05/10 2014 N.M. Outdoor Expo, Craft Show, Yard Sale Duncan, SC
05/07/2014 05/10 to 05/10 2014 Mother's Day Celebration Greeneville, TN
05/07/2014 05/09 to 05/11 2014 Wild West Weekend Cresson, TX
05/07/2014 05/17 to 05/17 2014 Chalk This Way 2014 Lewisville, TX
05/07/2014 06/07 to 06/07 2014 Pimps and Pinups Vendor Expo Skokomish, WA
05/07/2014 05/17 to 05/18 2014 Wisconsin Dells Automotion Wisconsin Dells, WI
05/07/2014 05/10 to 05/10 2014 Rapids Mall Spring Art & Craft Show Wisconsin Rapids, WI
05/08/2015 05/08 to 05/09 2015 Guin Mayfest Guin, AL
05/08/2014 05/30 to 06/01 2014 Do-Division Street Fest & Sidewalk Sale Chicago, IL
05/08/2014 05/10 to 05/10 2014 Anne Arundel Flea Market Crownsville, MD
05/08/2014 05/10 to 05/11 2014 Mother's Day Weekend Craft Festival Hampton Falls, NH
05/08/2014 06/08 to 06/08 2014 Image Forum / Charity Brunch Denville, NJ
05/08/2014 07/25 to 07/26 2014 Estacada Summer Celebration Estacada, OR
05/08/2014 06/21 to 06/21 2014 Penn-Mar Irish Festival Glen Rock, PA
05/08/2014 05/10 to 05/10 2014 Passport to Spring Craft Fair Milwaukee, WI
05/08/2014 05/23 to 05/25 2014 Webster County Woodchopping Festival Webster Springs, WV
05/09/2015 05/16 to 05/16 2015 Uriah Cotton Patch Festival Uriah, AL
05/09/2015 05/16 to 05/17 2015 Highlands Ranch Music Arts Festival Highlands Ranch, CO
05/09/2014 06/21 to 06/21 2014 Slocomb Tomato Festival Slocomb, AL
05/09/2014 05/16 to 05/17 2014 Crawdad Days Musical Festival Harrison, AR
05/09/2014 06/07 to 06/08 2014 Prescott Territorial Days Prescott, AZ
05/09/2014 06/25 to 06/29 2014 Lompoc Flower Festival Lompoc, CA
05/09/2014 06/14 to 06/14 2014 Rods & Rails Festival Perris, CA
05/09/2014 06/07 to 06/15 2014 San Mateo County Fair San Mateo, CA
05/09/2014 06/13 to 06/13 2014 Concerts in the Park - Community Connection Waterford, CA
05/09/2014 06/20 to 06/20 2014 Concerts in the Park - Fiesta Waterford Waterford, CA
05/09/2014 05/30 to 05/30 2014 Concerts in the Park - Graffiti Night Waterford, CA
05/09/2014 06/27 to 06/27 20140 Concerts in the Park - Swinging Summer Waterford, CA
05/09/2014 06/06 to 06/06 2014 Concerts in the Park - Waterford Round Up Waterford, CA
05/09/2014 05/10 to 05/10 2014 Windsor Zucchini Festival Gainesville, FL
05/09/2014 06/19 to 06/19 2014 Seaside Fiesta New Smyrna Beach, FL
05/09/2014 05/16 to 05/17 2014 Adel Daylily Festival Adel, GA
05/09/2014 06/07 to 06/07 2014 Summer Celebration Sioux Center, IA
05/09/2014 05/17 to 05/17 2014 Dog D'alene Coeur D'alene, ID
05/09/2014 06/06 to 06/07 2014 Gumbo Ya Ya Mardi Gras in the District Rock Island, IL
05/09/2014 05/16 to 05/18 2014 Logansport River City Fest Logansport, LA
05/09/2014 05/10 to 05/11 2014 Repticon Shreveport Reptile & Exotic Animal Show Shreveport, LA
05/09/2014 06/07 to 06/08 2014 Mount Clemens Art Fair Mount Clemens, MI
05/09/2014 05/10 to 05/10 2014 If All Men Were Good, There Would Be No Bad Women -Play Goldsboro, NC
05/09/2014 05/18 to 05/18 2014 Shine in the Pines Spring Event Batsto, NJ
05/09/2014 05/17 to 05/17 2014 SC Macdonald Ranch Spring Home Show Henderson, NV
05/09/2014 05/10 to 05/11 2014 Tanner's Marketplace Reno, NV
05/09/2014 05/18 to 05/18 2014 The Rastro of Reno Reno, NV
05/09/2014 05/21 to 05/22 2014 Plaza Crafts Show Albany, NY
05/09/2014 05/24 to 05/25 2014 East Durham Irish Festival East Durham, NY
05/09/2014 08/09 to 08/10 2014 Lewiston Art Festival Lewiston, NY
05/09/2014 06/07 to 06/08 2014 Ohio Valley Frontier Days Steubenville, OH
05/09/2014 08/30 to 09/01 2014 Arts Festival Oklahoma Oklahoma City, OK
05/09/2014 06/13 to 06/14 2014 Art on the Avenue Tahlequah, OK
05/09/2014 05/16 to 05/17 2014 Johnsonville Heritage Festival Johnsonville, SC
05/09/2014 07/25 to 07/25 2014 Finally Friday! Lancaster, SC
05/09/2014 05/17 to 05/17 2014 The Bray PTA Spring Carnival and Marketplace Cedar Hill, TX
05/09/2014 05/09 to 05/10 2014 Electra Goat BBQ Cookoff and Craft Show Electra, TX
05/09/2014 05/23 to 05/26 2014 River Walk Memorial Day Arts and Crafts Show San Antonio, TX
05/09/2014 05/18 to 05/18 2014 Royal Event Wisconsin Rapids, WI
05/10/2015 05/22 to 05/25 2015 Fort Lauderdale Home Design And Remodeling Show Fort Lauderdale, FL
05/10/2014 05/24 to 05/24 2014 Old School and Blues Festival Harvest, AL
05/10/2014 05/16 to 05/18 2014 Logan Martin Lakefest Pell City, AL
05/10/2014 05/24 to 05/26 2014 Memorialfest Art & Crafts Bazaar Payson, AZ
05/10/2014 05/24 to 05/24 2014 Cambie Spring Swap Meet Richmond, BC
05/10/2014 05/29 to 06/01 2014 Dana Point Harbor Boat Show Dana Point, CA
05/10/2014 05/15 to 05/19 2014 Russian River Women's Weekend Guerneville, CA
05/10/2014 06/14 to 06/15 2014 La Honda Fair and Music Festival La Honda, CA
05/10/2014 07/26 to 07/27 2014 Oxnard Salsa Festival Oxnard, CA
05/10/2014 05/17 to 05/18 2014 Pine Mountain Club Lilac Festival Pine Mountain Club, CA
05/10/2014 06/12 to 06/15 2014 El Dorado County Fair Placerville, CA
05/10/2014 05/17 to 05/18 2014 Art on the Main Walnut Creek, CA
05/10/2014 09/06 to 09/07 2014 Colorado Artfest at Castle Rock Castle Rock, CO
05/10/2014 07/10 to 07/12 2014 Rocky Mountain Quilt, Craft & Sewing Festival Castle Rock, CO
05/10/2014 09/27 to 09/28 2014 The Cotton South Fine Arts Festival Madison, GA
05/10/2014 05/24 to 05/26 2014 Iowa Renaissance Festival Amana Colonies, IA
05/10/2014 05/24 to 05/25 2014 Bonaparte Spring Festival Bonaparte, IA
05/10/2014 07/12 to 07/13 2014 Ponchatoula Bird Fair & Sale Ponchatoula, LA
05/10/2014 09/27 to 09/27 2014 Backstreet Arts and Craft Fair Shreveport, LA
05/10/2014 07/12 to 07/13 2014 Green River Festival Greenfield, MA
05/10/2014 05/18 to 05/18 2014 Greyhound Friends Open House Hopkinton, MA
05/10/2014 05/17 to 05/17 2014 Dundalk Outdoor Art Show Dundalk, MD
05/10/2014 06/14 to 06/14 2014 Summer In The Village Lathrup Village, MI
05/10/2014 05/29 to 06/01 2014 Niles Blugrass Festival Niles, MI
05/10/2014 06/22 to 06/22 2014 Art on the Green Sturgis, MI
05/10/2014 07/12 to 07/12 2014 American Pie A Celebration of Art and Freedom Union City, MI
05/10/2014 08/02 to 08/03 2014 Warren Art in the Park Warren, MI
05/10/2014 05/17 to 05/17 2014 Elk's #179 Crafts, Collectibles & Vendor Sale Stillwater, MN
05/10/2014 05/17 to 05/17 2014 North County Band Craft Fair and Car Show Bonne Terre, MO
05/10/2014 07/10 to 07/12 2014 The Dawg Daze of Summer Festival Savannah, MO
05/10/2014 05/17 to 05/17 2014 Christian Fellowship and Fun Day Meridian, MS
05/10/2014 05/23 to 05/25 2014 Fossil Festival Aurora, NC
05/10/2014 05/10 to 05/10 2014 North Carolina Brewers and Music Festival Huntersville, NC
05/10/2014 05/09 to 05/10 2014 Tuscarora Nation Pow Wow Maxton, NC
05/10/2014 05/30 to 06/01 2014 Riverfest 2014 Red Bank, NJ
05/10/2014 06/08 to 06/08 2014 Forest Hills Festival of The Arts Forest Hills, Queens, NY
05/10/2014 05/31 to 06/01 2014 Art in the Park Huntington, NY
05/10/2014 05/30 to 06/01 2014 Spring Home & Garden Show Grants Pass, OR
05/10/2014 05/16 to 05/18 2014 Edinboro Art and Music Festival Edinboro, PA
05/10/2014 05/24 to 05/25 2014 Red White and Brew Uniontown, PA
05/10/2014 06/28 to 06/28 2014 Riverfest Conway, SC
05/10/2014 06/12 to 06/14 2014 Party in the Pines Festival Whitmire, SC
05/10/2014 05/28 to 06/27 2014 Kingsport Spring Spectacular Photography Contest Kingsport, TN
05/10/2014 05/17 to 05/17 2014 Blanco Market Day - May Blanco, TX
05/10/2014 05/17 to 05/17 2014 JC Fest 2014 Cleburne, TX
05/10/2014 05/23 to 05/25 2014 National Polka Festival Ennis, TX
05/10/2014 05/24 to 05/24 2014 Plumb Alley Day Abingdon, VA
05/10/2014 06/27 to 06/29 2014 Hogging Up BBQ & Music Festival / KCBS Competition Clear Brook, VA
05/10/2014 05/24 to 05/24 2014 Deltafest Deltaville, VA
05/10/2014 10/10 to 10/12 2014 Dungeness Crab and Seafood Festival Port Angeles, WA
05/10/2014 07/25 to 07/27 2014 IKEA Renton River Days Renton, WA
05/10/2014 05/24 to 05/25 2014 Burlington Jaycees Arts & Crafts Fair Burlington, WI
05/10/2013 10/26 to 10/26 2013 Holiday Traditions Craft Show Atlanta, GA
05/11/2015 05/24 to 05/25 2015 Spring Fest Newburyport, MA
05/11/2014 05/24 to 05/24 2014 Santa Paula Chili Cook Off & Festival Santa Paula, CA
05/11/2014 05/15 to 05/15 2014 Willimantic's Third Thursday Street Fest Willimantic, CT
05/11/2014 05/24 to 05/24 2014 Lake Hartwell Music Festival Hartwell, GA
05/11/2014 06/21 to 06/21 2014 Washunga Days Arts and Crafts Fair Council Grove, KS
05/11/2014 05/25 to 05/25 2014 Soft Shell Spring Fair Crisfield, MD
05/11/2014 05/25 to 05/25 2014 Red Hills Festival Louisville, MS
05/11/2014 05/17 to 05/17 2014 Festival (and Art!) in the Park Lenoir, NC
05/11/2014 07/02 to 07/04 2014 North Carolina Fourth of July Festival Southport, NC
05/11/2014 05/18 to 05/18 2014 Spring Fling Somerville, NJ
05/11/2014 05/23 to 05/26 2014 Azalea Festival Brookings, OR
05/11/2014 05/23 to 05/25 2014 Rockaway Beach Kite Festival Rockaway Beach, OR
05/11/2014 05/24 to 05/25 2014 Great Pennsylvania Flavorfest Manheim, PA
05/11/2014 04/25 to 04/27 2014 Fiesta Arts & Crafts Show San Antonio, TX
05/11/2013 11/29 to 11/30 2013 Twenty-Third Holiday Crafts Festival Warwick, RI
05/12/2015 05/16 to 05/16 2015 Third Saturday East Cooper Crafters' May Event Mount Pleasant, SC
05/12/2015 05/16 to 05/16 2015 Texas Steak Cookoff Hico, TX
05/12/2014 06/20 to 06/22 2014 Summer Solstice Parade & Festival Santa Barbara, CA
05/12/2014 08/01 to 08/03 2014 Crestone Music Festival Crestone, CO
05/12/2014 11/08 to 11/09 2014 Downtown Festival & Art Show Gainesville, FL
05/12/2014 06/21 to 06/21 2014 Ice Cream Days Celebration Lemars, IA
05/12/2014 05/17 to 05/18 2014 Wichita Woodcarvers Show Wichita, KS
05/12/2014 05/24 to 05/24 2014 Vendor Showcase & Fair Biloxi, MS
05/12/2014 06/07 to 06/07 2014 Car-B-Que Hayesville, NC
05/12/2014 06/14 to 06/14 2014 Ancaster Heritage Days Ancaster, ON
05/12/2014 06/14 to 06/14 2014 Brookings Car Show Brookings, SD
05/12/2014 05/24 to 05/25 2014 Funtier Days Arts and Crafts Show Bandera, TX
05/12/2014 10/11 to 10/12 2014 Crozet Arts and Crafts Fall Festival Crozet, VA
05/13/2015 05/16 to 05/16 2015 Cameron Dewberry Festival Cameron, TX
05/13/2014 06/13 to 06/13 2014 ART on the Square Redwood City, CA
05/13/2014 06/06 to 06/08 2014 Tweedy Mile Street Fair South Gate, CA
05/13/2014 06/21 to 06/21 2014 Drivin' the Dixie Days Rossville, IL
05/13/2014 05/17 to 05/17 2014 Pirates Day Bourne, MA
05/13/2014 05/22 to 06/19 2014 Members' Juried Show Wayzata, MN
05/13/2014 07/18 to 07/20 2014 Nsdcc Summer Craft Market Halifax, NS
05/13/2014 06/14 to 06/15 2014 Maplewood Rose Festival Rochester, NY
05/13/2014 06/13 to 06/14 2014 Utah Scottish Festival & Highland Games Lehi, UT
05/13/2014 07/26 to 09/07 2014 Virginia Artists Juried Exhibition Hampton, VA
05/13/2014 06/15 to 06/15 2014 Manassas Wine & Jazz Festival Manassas, VA
05/13/2014 06/01 to 06/30 2014 NVAA Eighty-Fourth June Juried Art Show Jeffersonville, VT
05/13/2014 06/20 to 06/22 2014 Fiesta Waukesha Waukesha, WI
05/14/2015 05/16 to 05/16 2015 Asparagusfest Mount Pleasant, MI
05/14/2015 05/16 to 05/16 2015 Spicewood Buzzard Bump Festival Spicewood, TX
05/14/2014 05/17 to 05/17 2014 Whitmore Mountain Fair Whitmore, CA
05/14/2014 06/13 to 08/16 2014 Louisville Downtown Street Faire Louisville, CO
05/14/2014 06/14 to 06/14 2014 Humboldt Arts Festival Humboldt, IA
05/14/2014 06/29 to 06/29 2014 Chicago Summerfest Chicago, IL
05/14/2014 06/14 to 06/14 2014 Artsy - Arts & Crafts Exhibit Rockford, IL
05/14/2014 06/13 to 06/14 2014 Round Barn Festival Rochester, IN
05/14/2014 05/24 to 05/24 2014 Glory Days Festival Car & Motorcycle Show Holton, KS
05/14/2014 05/24 to 05/24 2014 Lake Fest Vicksburg/eagle Lake, MS
05/14/2014 06/13 to 06/14 2014 Banana Split Festival Wilmington, OH
05/14/2014 06/14 to 06/14 2014 Gravenhurst Car Show Gravenhurst, ON
05/14/2014 10/10 to 10/12 2014 Clay Fest Eugene, OR
05/14/2014 06/13 to 06/13 2014 Movie Night - Toy Story Virginia Beach, VA
05/14/2014 07/04 to 07/04 2014 Virginia Beach July Fourth Celebration Virginia Beach, VA
05/14/2014 05/15 to 05/18 2014 Selah Community Days Selah, WA
05/14/2013 11/15 to 11/17 2013 NSDCC Christmas Craft Market Halifax, NS
05/14/2013 05/29 to 06/01 2014 Ithaca Festival Ithaca, NY
05/15/2015 05/23 to 05/25 2015 McGregor Spring Arts and Crafts Festival Mcgregor, IA
05/15/2015 05/23 to 05/24 2015 Arts & Crafts Show Gilbertsville, KY
05/15/2015 06/17 to 06/21 2015 Winona Steamboat Days Winona, MN
05/15/2015 05/29 to 05/30 2015 Squarefest Calhoun City, MS
05/15/2015 07/10 to 07/12 2015 Chataqua Chewelah, WA
05/15/2015 07/18 to 07/18 2015 Port Washington Fish Day Arts and Crafts Festival Port Washington, WI
05/15/2015 06/12 to 06/15 2014 Verona Hometown Days Verona, WI
05/15/2014 06/13 to 06/14 2014 Gadsden Riverfest Gadsden, AL
05/15/2014 06/07 to 06/08 2014 Tannehill Gem, Mineral, Fossil & Jewelry Show Mccalla, AL
05/15/2014 06/28 to 06/28 2014 Mountain Art Market Prescott, AZ
05/15/2014 08/01 to 08/03 2014 Gem, Mineral & Jewelry Show & Sale Prescott Valley, AZ
05/15/2014 05/17 to 05/18 2014 Relics at Rainbow's End Art and Craft Show Sedona, AZ
05/15/2014 05/24 to 05/25 2014 Arnold Peddler's Faire Arnold, CA
05/15/2014 05/17 to 05/18 2014 Himalayan Fair Berkeley, CA
05/15/2014 08/02 to 08/17 2014 Big Bear Pirate Faire Fawnskin, CA
05/15/2014 08/02 to 08/17 2014 Fawnskin Victorian & Steampunk Days Fawnskin, CA
05/15/2014 06/14 to 06/15 2014 The BIG Irish Festival Irvine, CA
05/15/2014 06/21 to 06/21 2014 Julian Blues Bash Sweet Sixteen Julian, CA
05/15/2014 05/31 to 06/01 2014 Julian Gold Rush Days Julian, CA
05/15/2014 06/07 to 06/07 2014 Morro Bay Music Festival Morro Bay, CA
05/15/2014 06/13 to 06/15 2014 Huck Finn Jubilee Ontario, CA
05/15/2014 05/31 to 06/01 2014 Goodguys Summer Get-Together Pleasanton, CA
05/15/2014 06/07 to 06/08 2014 Palos Verdes Street Fair & Music Festival Rolling Hills Estates, CA
05/15/2014 06/19 to 06/22 2014 Placer County Fair Roseville, CA
05/15/2014 06/07 to 06/07 2014 I'm Coming Out Intl Business and Talents Expo 2014 Sacramento, CA
05/15/2014 06/08 to 06/08 2014 San Luis Obispo Concours San Luis Obispo, CA
05/15/2014 06/01 to 06/01 2014 Art in the Park at Dinosaur Caves - June Shell Beach, CA
05/15/2014 05/31 to 06/01 2014 Fiesta Del Sol Solana Beach, CA
05/15/2014 05/25 to 05/25 2014 Vista Strawberry Festival & 10k Run Vista, CA
05/15/2014 05/30 to 06/01 2014 Temecula Valley Balloon & Wine Festival Winchester, CA
05/15/2014 06/01 to 06/01 2014 Yorba Linda Celebration of the Arts Yorba Linda, CA
05/15/2014 07/28 to 08/03 2014 Eastern Colorado Roundup Akron, CO
05/15/2014 06/14 to 09/14 2014 Mountain Rails Live Alamosa, CO
05/15/2014 08/09 to 08/10 2014 Gold Rush Days Buena Vista, CO
05/15/2014 09/12 to 09/14 2014 Folk Art Festival at Rock Ledge Ranch Colorado Springs, CO
05/15/2014 08/21 to 08/25 2014 Denver Gift, Home, Jewlery & Resort Show Denver, CO
05/15/2014 06/21 to 06/22 2014 Denver Pridefest Denver, CO
05/15/2014 06/20 to 06/21 2014 Fun in the Sun Durango, CO
05/15/2014 07/12 to 07/13 2014 Art on the Green Lyons, CO
05/15/2014 06/14 to 06/16 2014 Santa Fe Trail Festival Trinidad, CO
05/15/2014 06/07 to 06/07 2014 Teddy Bear Family Craft Festival New Milford, CT
05/15/2014 06/14 to 06/14 2014 Orange Strawberry Festival Orange, CT
05/15/2014 06/01 to 06/01 2014 Seymour Founders' Day Seymour, CT
05/15/2014 06/28 to 06/28 2014 Trumbull Day Trumbull, CT
05/15/2014 08/13 to 08/16 2014 ABANA (Artist-Blacksmith) Conference Harrington, DE
05/15/2014 05/24 to 05/24 2014 Horseshoe Crab & Shorebird Festival Milton, DE
05/15/2014 05/31 to 05/31 2014 Jax Community & Family Awareness Expo Jacksonville, FL
05/15/2014 05/23 to 05/26 2014 Palatka Blue Crab Festival Palatka, FL
05/15/2014 05/17 to 05/17 2014 Tour For The Horses - Bicycle Tour & Festival Pierson, FL
05/15/2014 05/17 to 05/18 2014 Martin County Nautical Flea Market Stuart, FL
05/15/2014 06/07 to 06/07 2014 Wellborn Blueberry Festival Wellborn, FL
05/15/2014 06/06 to 06/07 2014 Daylily Festival Gray, GA
05/15/2014 05/17 to 05/18 2014 Hogansville Spring Festival Hogansville, GA
05/15/2014 06/11 to 06/14 2014 Atlantafest Stone Mountain, GA
05/15/2014 06/07 to 06/07 2014 Segafest (Southeast Georgia Music Festival) Waynesville, GA
05/15/2014 05/31 to 06/01 2014 Wing & Rock Fest Woodstock, GA
05/15/2014 06/11 to 06/14 2014 Rally on the River QC Davenport, IA
05/15/2014 07/04 to 07/05 2014 80/35 Music Festival Des Moines, IA
05/15/2014 08/22 to 08/24 2014 Lincoln Highway Days Nevada, IA
05/15/2014 05/24 to 05/26 2014 Vick's Corner Memorial Day Antique Show & Flea Market Spirit Lake, IA
05/15/2014 07/30 to 08/02 2014 Gem/boise County Fair Emmett, ID
05/15/2014 06/21 to 06/22 2014 Terrace Lakes Wine & Art Festival Garden Valley, ID
05/15/2014 06/07 to 06/07 2014 Outdoor Adventures Show Hagerman, ID
05/15/2014 06/27 to 06/29 2014 Idaho City Flea Market Idaho City, ID
05/15/2014 06/16 to 06/21 2014 National Oldtime Fiddlers' Contest and Festival Weiser, ID
05/15/2014 06/25 to 06/29 2014 Bourbonnais Friendship Festival Bourbonnais, IL
05/15/2014 06/13 to 06/14 2014 Daisy Days Festival & Craft Show Clarendon Hills, IL
05/15/2014 06/07 to 10/18 2014 Elk Grove Farmers Market Elk Grove Village, IL
05/15/2014 06/21 to 06/22 2014 Custer Fair Evanston, IL
05/15/2014 07/26 to 07/27 2014 Glenview Summer Art Fair Glenview, IL
05/15/2014 07/23 to 07/27 2014 DuPage County Fair Wheaton, IL
05/15/2014 06/06 to 06/08 2014 All American Country Hoedown Festival Campbellsburg, IN
05/15/2014 06/05 to 06/07 2014 Mentone Egg Festival Mentone, IN
05/15/2014 08/23 to 08/24 2014 Summertime Celebration of Arts & Crafts Noblesville, IN
05/15/2014 07/12 to 07/19 2014 Peru Amateur Circus Peru, IN
05/15/2014 06/06 to 06/08 2014 Rosedale Strawberry Festival Rosedale, IN
05/15/2014 06/25 to 06/28 2014 Shipshewana Quilt Festival Shipshewana, IN
05/15/2014 05/31 to 05/31 2014 Handmade in the Heartland Craft Fairs - May Wichita, KS
05/15/2014 07/04 to 07/04 2014 Lexington Fourth of July Festival Lexington, KY
05/15/2014 06/07 to 06/07 2014 Cambridge River Festival Cambridge, MA
05/15/2014 06/21 to 06/21 2014 Hanover Day Hanover, MA
05/15/2014 09/27 to 09/28 2014 Fruitlands Craft Fair Harvard, MA
05/15/2014 05/24 to 05/24 2014 WES Fest! Wellfleet, MA
05/15/2014 05/25 to 05/25 2014 Sowebo Arts and Music Festival Baltimore, MD
05/15/2014 05/29 to 06/01 2014 Western Maryland Blues Fest Hagerstown, MD
05/15/2014 06/13 to 06/15 2014 Shenandoah Riverside Festival 2014 New Brunswick, MD
05/15/2014 06/11 to 06/14 2014 Cypress Festival Pocomoke City, MD
05/15/2014 06/14 to 06/14 2014 River Fest Shady Side, MD
05/15/2014 08/09 to 08/10 2014 Eagle Harbor Art Fair Eagle Harbor, MI
05/15/2014 07/18 to 07/20 2014 Downtown Farmington Founders Festival Farmington, MI
05/15/2014 05/23 to 05/25 2014 Memorial Weekend Arts & Crafts Festival Newaygo, MI
05/15/2014 06/05 to 06/08 2014 Owosso-Curwood Festival Owosso, MI
05/15/2014 06/14 to 06/15 2014 Lock, Stock, and Barrel Variety Show and Sale Event Washington, MI
05/15/2014 07/22 to 07/27 2014 Anoka County Fair Anoka, MN
05/15/2014 06/13 to 06/14 2014 Fergus Falls Summerfest Fergus Falls, MN
05/15/2014 06/06 to 06/08 2014 Buffalo Days Luverne, MN
05/15/2014 06/24 to 06/25 2014 Red River Watercolor Society Art Fair Moorhead, MN
05/15/2014 06/07 to 06/07 2014 Cherry Car Show Pequot Lakes, MN
05/15/2014 06/14 to 06/22 2014 Turtle Fest Perham, MN
05/15/2014 08/01 to 08/03 2014 River City Days Red Wing, MN
05/15/2014 06/21 to 06/21 2014 Midsommar Dag Scandia, MN
05/15/2014 05/26 to 05/26 2014 Gypsy Caravan Saint Charles, MO
05/15/2014 05/30 to 05/31 2014 Thurman Loop Fest - Music, Art & BBQ Saint Louis, MO
05/15/2014 06/14 to 06/28 2014 Asheville Art in the Park Asheville, NC
05/15/2014 06/05 to 06/08 2014 Groverfest Catawba, NC
05/15/2014 06/13 to 06/14 2014 Charlie Poole Music Festival Eden, NC
05/15/2014 10/24 to 10/26 2014 Albemarle Craftsman's Fair Elizabeth City, NC
05/15/2014 06/21 to 06/22 2014 Mountain Made Crafts Summer Festival Lake Junaluska, NC
05/15/2014 05/17 to 05/18 2014 Comic Book, Toy and Sports Card Expo Lumberton, NC
05/15/2014 07/04 to 07/05 2014 Pamlico County Croaker Festival Oriental, NC
05/15/2014 07/04 to 07/04 2014 State Capitol Independence Day Festival Raleigh, NC
05/15/2014 05/16 to 05/18 2014 White Lake Water Festival White Lake, NC
05/15/2014 06/05 to 06/08 2014 Texas Pete Twin City Ribfest Winston-Salem, NC
05/15/2014 07/12 to 07/12 2014 River's Edge Horse Rescue First Fundraiser Fredon, NJ
05/15/2014 06/07 to 06/07 2014 Strawberry Festival Helmetta, NJ
05/15/2014 06/07 to 06/07 2014 Merchantville Birthday Celebration Merchantville, NJ
05/15/2014 10/04 to 10/05 2014 Festival of Fine Craft Millville, NJ
05/15/2014 06/14 to 06/14 2014 Second Pine Street Artsfest Montclair, NJ
05/15/2014 06/07 to 06/07 2014 Delaware Bay Day Port Norris, NJ
05/15/2014 06/01 to 06/01 2014 Crafts in the Park Westwood, NJ
05/15/2014 07/05 to 07/05 2014 Beachglow Music Festival 2014 Wildwood, NJ
05/15/2014 06/15 to 06/15 2014 Art In The Park - June Corrales, NM
05/15/2014 07/17 to 07/20 2014 Folk On The Rocks Festival Yellowknife, NT
05/15/2014 05/23 to 05/25 2014 Run-A-Mucca Motorcycle Rally Winnemucca, NV
05/15/2014 08/03 to 08/31 2014 Village of Chester Farmer Market - August Chester, NY
05/15/2014 07/06 to 07/27 2014 Village of Chester Farmer Market - July Chester, NY
05/15/2014 06/01 to 06/29 2014 Village of Chester Farmer Market - June Chester, NY
05/15/2014 10/05 to 10/26 2014 Village of Chester Farmer Market - October Chester, NY
05/15/2014 09/07 to 09/28 2014 Village of Chester Farmer Market - September Chester, NY
05/15/2014 07/11 to 08/15 2014 Cooperstown Art Association National Juried Exhibition Cooperstown, NY
05/15/2014 06/07 to 06/07 2014 Cornwall-On-Hudson Riverfest Cornwall-On-Hudson, NY
05/15/2014 05/24 to 05/25 2014 Shearing Festival and Craft Show Fabius, NY
05/15/2014 07/05 to 07/06 2014 Great American Weekend Goshen, NY
05/15/2014 06/06 to 06/07 2014 Polish Heritage Festival Hamburg, NY
05/15/2014 06/13 to 06/15 2014 New Directions Cello Festival Ithaca, NY
05/15/2014 05/17 to 05/17 2014 Community Yard Sale Middletown, NY
05/15/2014 06/07 to 06/08 2014 Outdoor Show/Fishing Tournaments Olean, NY
05/15/2014 07/05 to 08/17 2014 Sterling Renaissance Festival Sterling, NY
05/15/2014 08/07 to 08/28 2014 Walden Farmers Market - August Walden, NY
05/15/2014 07/03 to 07/31 2014 Walden Farmers Market - July Walden, NY
05/15/2014 06/19 to 06/26 2014 Walden Farmers Market - June Walden, NY
05/15/2014 10/02 to 10/02 2014 Walden Farmers Market - October Walden, NY
05/15/2014 09/04 to 09/25 2014 Walden Farmers Market - September Walden, NY
05/15/2014 06/07 to 06/08 2014 Westhampton Beach Spring Arts and Craft Show Westhampton Beach, NY
05/15/2014 05/23 to 05/25 2014 Indian Mound Mall Arts & Crafts Festival Heath, OH
05/15/2014 06/19 to 06/21 2014 London Strawberry Festival London, OH
05/15/2014 07/18 to 07/20 2014 Saint Joseph's Ox Roast Fair Mantua, OH
05/15/2014 09/27 to 09/27 2014 Art Affaire Milford, OH
05/15/2014 06/07 to 06/08 2014 Old West End Art Festival & House Tours Toledo, OH
05/15/2014 07/19 to 07/19 2014 Art Affair on the Square Urbana, OH
05/15/2014 07/02 to 07/05 2014 Willard Festival in the Park Willard, OH
05/15/2014 07/04 to 07/04 2014 2014 Bethany Freedom Festival Bethany, OK
05/15/2014 06/06 to 06/07 2014 Big Cabin Crafts Showcase Days Big Cabin, OK
05/15/2014 07/09 to 07/13 2014 Woody Guthrie Folk Music Festival Okemah, OK
05/15/2014 06/13 to 06/14 2014 Markham Village Music Festival Markham, ON
05/15/2014 09/20 to 09/21 2014 Milton Farm Fall Craft Show 2014 Milton, ON
05/15/2014 08/02 to 08/03 2014 Art by the Lighthouse Niagara on the Lake, ON
05/15/2014 07/01 to 07/01 2014 Tillsonburg Canada Day Festival of Music Tillsonburg, ON
05/15/2014 07/18 to 07/27 2014 Beaches International Jazz Festival Toronto, ON
05/15/2014 07/15 to 07/20 2014 Jackson County Fair Central Point, OR
05/15/2014 06/05 to 06/08 2014 Lebanon Strawberry Festival Lebanon, OR
05/15/2014 06/14 to 06/14 2014 Garrison Day Beaver, PA
05/15/2014 06/07 to 06/29 2014 Wild Rose Renaissance Faire Columbus, PA
05/15/2014 06/19 to 06/21 2014 Smoked Country Jam Bluegrass Festival Cross Fork, PA
05/15/2014 07/13 to 07/15 2014 Italian Festival of Fayette County Dunbar, PA
05/15/2014 06/19 to 06/22 2014 Tuscarora Valley Heritage Days East Waterford, PA
05/15/2014 06/11 to 06/15 2014 The Gettysburg Festival Gettysburg, PA
05/15/2014 06/21 to 06/22 2014 Great Tastes of Pennsylvania Wine & Food Festival Lake Harmony, PA
05/15/2014 06/07 to 06/07 2014 Arts Festival Lansdale Day Lansdale, PA
05/15/2014 05/15 to 05/18 2014 Spring Gulch Folk Festival New Holland, PA
05/15/2014 06/07 to 06/08 2014 Gibson Days North East, PA
05/15/2014 05/21 to 08/21 2013 Skippack Village Summer Concert Series Skippack, PA
05/15/2014 07/11 to 07/12 2014 The Gathering at French Creek Union City, PA
05/15/2014 07/17 to 07/19 2014 Zelienople/ Harmony Horse Trading Days Zelienople/harmony, PA
05/15/2014 10/12 to 10/19 2014 Bluffton Arts and Seafood Festival Bluffton, SC
05/15/2014 09/26 to 09/28 2014 Atalaya Arts and Crafts Festival Murrells Inlet, SC
05/15/2014 05/23 to 05/25 2014 Iris Festival Sumter, SC
05/15/2014 06/20 to 06/22 2014 Oahe Days Arts Festival Pierre, SD
05/15/2014 06/11 to 06/14 2014 Elizabethton Covered Bridge Celebration Elizabethton, TN
05/15/2014 05/30 to 05/31 2014 Main Street Lawrenceburg Heritage Festival Lawrenceburg, TN
05/15/2014 05/20 to 05/24 2014 Festival on the Rocks Lewisburg, TN
05/15/2014 06/06 to 06/07 2014 Madison Bluegrass Festival Madison, TN
05/15/2014 06/13 to 06/15 2014 Official Shrimporee of Texas Aransas Pass, TX
05/15/2014 10/10 to 10/12 2014 Texas Arts and Crafts Fair Ingram, TX
05/15/2014 06/06 to 06/06 2014 Summer Break KICK OFF Killeen, TX
05/15/2014 06/14 to 06/14 2014 Colin Classic Mckinney, TX
05/15/2014 06/07 to 06/01 2014 Lone Star First Saturday Farmers Market - June Montgomery, TX
05/15/2014 07/26 to 07/27 2014 Beachcombers Art Show South Padre Island, TX
05/15/2014 11/13 to 11/15 2014 Velvet Stocking Craft Bazaar Webster, TX
05/15/2014 08/29 to 08/31 2014 Westfest West, TX
05/15/2014 06/28 to 06/28 2014 Elk Ridge City Celebration Elk Ridge, UT
05/15/2014 06/11 to 06/14 2014 Panguitch Quilt Walk Festival Panguitch, UT
05/15/2014 06/14 to 06/14 2014 Made in the Shade Craft Beer Festival Altavista, VA
05/15/2014 10/11 to 10/12 2014 Virginia Arbor Fest Boyce, VA
05/15/2014 05/17 to 05/18 2014 Confederate Attack on Fort Pocahontas at Wilson's Charles City, VA
05/15/2014 05/25 to 05/25 2014 Bush Park Car & RV & Craft Show Deltaville, VA
05/15/2014 06/13 to 06/14 2014 Galax Leaf & String Festival Galax, VA
05/15/2014 09/20 to 09/21 2014 Colonial Market & Fair Mount Vernon, VA
05/15/2014 10/04 to 10/05 2014 An Occasion For the Arts Williamsburg, VA
05/15/2014 07/25 to 07/27 2014 Lamoille County Field Days Johnson, VT
05/15/2014 05/07 to 05/07 2014 Pepsi Armed Forces Festival Golf Tournament Bremerton, WA
05/15/2014 05/24 to 05/25 2014 Conconully Arts and Crafts Show Conconully, WA
05/15/2014 06/13 to 06/14 2014 Elk Pioneer Days Elk, WA
05/15/2014 06/13 to 06/14 2014 Art in the Park-Omak Omak, WA
05/15/2014 06/07 to 06/07 2014 Rosalia Battle Days Craft Show Rosalia, WA
05/15/2014 06/14 to 06/14 2014 Hillyard Chalkartwalk Spokane, WA
05/15/2014 05/31 to 05/31 2014 Founders' Day Craft Fair Tonasket, WA
05/15/2014 06/20 to 06/22 2014 Rusty Scupper's Pirate Daze Westport, WA
05/15/2014 06/14 to 06/14 2014 East Troy Arts and Crafts Fair East Troy, WI
05/15/2014 11/21 to 11/23 2014 Wisconsin Holiday Market Kohler, WI
05/15/2014 06/21 to 06/22 2014 Milwaukee Air & Water Show Milwaukee, WI
05/15/2014 06/06 to 06/08 2014 Pridefest Milwaukee, WI
05/15/2014 07/04 to 07/04 2014 Monona Festival's Art in the Park Monona, WI
05/15/2014 07/19 to 07/20 2014 Mount Horeb Art Fair Mount Horeb, WI
05/15/2014 06/21 to 06/22 2014 Fete de Fleurs - The Flowering of the Vines Saint Croix Falls, WI
05/15/2014 08/16 to 08/16 2014 Donna Lexa Memorial Art Fair Wales, WI
05/15/2014 09/26 to 09/28 2014 Warrens Cranberry Festival Warrens, WI
05/15/2014 06/12 to 06/14 2014 Capitol City Biker Bash Charleston, WV
05/15/2014 06/21 to 06/21 2014 Indoor Summertime Community Bazaar Inwood, WV
05/15/2013 05/24 to 05/26 2014 Cayucos Spring Peddler's Faire Cayucos, CA
05/15/2013 11/02 to 11/02 2013 Festival of Crafts Brookfield, CT
05/15/2013 10/19 to 10/19 2013 Needham Craft Fair Needham, MA
05/15/2013 11/29 to 12/01 2013 Holiday Festival of Crafts Worcester, MA
05/15/2013 10/05 to 10/19 2013 Asheville Art in the Park Asheville, NC
05/15/2013 06/20 to 06/22 2014 Pocono Mountains Bluegrass Festival Newfoundland, PA
05/15/2013 12/06 to 12/15 2013 Foundry Artists Association Holiday Sale Pawtucket, RI
05/15/2013 10/25 to 10/27 2013 River Arts Fest Memphis, TN
05/15/2013 11/08 to 11/10 2013 Northern Virginia Christmas Market Chantilly, VA
05/15/2013 11/29 to 12/01 2013 Virginia Beach Christmas Market Virginia Beach, VA
05/16/2014 05/22 to 05/25 2014 Augusta Days Augusta, AR
05/16/2014 06/06 to 06/07 2014 Portfest Festival Newport, AR
05/16/2014 05/17 to 05/18 2014 RCX - Radio Control Expo Costa Mesa, Ca, CA
05/16/2014 06/05 to 06/08 2014 Fontana Days Festival Fontana, CA
05/16/2014 05/17 to 05/17 2014 Breakfast With the Gibbons Santa Clarita, CA
05/16/2014 08/01 to 08/03 2014 Art Aspen Aspen, CO
05/16/2014 08/01 to 08/03 2014 Crested Butte Arts Festival Crested Butte, CO
05/16/2014 09/20 to 09/21 2014 Durango Autumn Arts Festival Durango, CO
05/16/2014 06/14 to 06/14 2014 Derby Day Derby, CT
05/16/2014 06/08 to 06/08 2014 The Show in the Park Manchester, CT
05/16/2014 07/12 to 07/13 2014 Bizarre Bazaar New London, CT
05/16/2014 05/17 to 05/18 2014 Cannondale Spring Craft Festival Wilton, CT
05/16/2014 06/01 to 06/01 2014 Say, I Do! LGBT Wedding Expo Washington, DC
05/16/2014 05/23 to 05/24 2014 BBQ Bash & Craft Fair Jacksonville, FL
05/16/2014 07/25 to 07/26 2014 Street Fest Davenport, IA
05/16/2014 05/17 to 05/17 2014 Flea Market Chicago, IL
05/16/2014 09/14 to 09/14 2014 Grand Detour Arts Festival Grand Detour, IL
05/16/2014 06/06 to 06/08 2014 Harvard's Milk Days Festival Harvard, IL
05/16/2014 08/02 to 08/03 2014 Festival of the Arts Libertyville, IL
05/16/2014 06/07 to 06/07 2014 Garden Fair at Minnetrista Muncie, IN
05/16/2014 08/22 to 10/12 2014 National Small Oil Painting Exhibition 2014 Wichita, KS
05/16/2014 05/24 to 05/26 2014 Kentucky Reggae Festival Louisville, KY
05/16/2014 05/24 to 05/24 2014 Elk Rapids Arts & Crafts Show Elk Rapids, MI
05/16/2014 06/26 to 06/26 2014 Lemonade Concert and Art Fair Saint Cloud, MN
05/16/2014 05/25 to 05/25 2014 B.B. King Hometown Homecoming Indianola, MS
05/16/2014 06/07 to 06/07 2014 Angier Bike Fest Angier, NC
05/16/2014 06/07 to 06/07 2014 Dare Day Festival Manteo, NC
05/16/2014 06/07 to 06/07 2014 East Brunswick Fine Arts Festival East Brunswick, NJ
05/16/2014 06/07 to 06/07 2014 Fine Arts Festival East Brunswick, NJ
05/16/2014 05/25 to 05/25 2014 Fourteenth Seaport Craft Show Highlands, NJ
05/16/2014 06/07 to 06/07 2014 Moorestown Day Moorestown, NJ
05/16/2014 05/25 to 05/25 2014 The Rastro of Reno Reno, NV
05/16/2014 05/17 to 05/17 2014 BBC Fine Art and Fine Craft Show New York City, NY
05/16/2014 09/21 to 09/21 2014 Fort Hunter Day Harrisburg, PA
05/16/2014 05/24 to 05/24 2014 Spring Flea Market & Craft Show on the Fairgrounds Newfoundland, PA
05/16/2014 05/17 to 05/17 2014 Potters on Gaffney's Old Field Gaffney, SC
05/16/2014 05/17 to 05/18 2014 Repticon Knoxville Reptile & Exotic Animal Show Knoxville, TN
05/16/2014 06/06 to 06/07 2014 Mineola Summer JUNEbilee Mineola, TX
05/16/2014 06/28 to 07/25 2014 Celebrate With Color Juried National Art Exhibit Fredericksburg, VA
05/16/2014 07/12 to 07/12 2014 French Heritage Day Vergennes, VT
05/16/2014 05/24 to 05/24 2014 Art on the Walk Menomonee Falls, WI
05/17/2014 05/24 to 05/26 2014 Twenty-Sixth Taste of Creede Creede, CO
05/17/2014 06/07 to 06/07 2014 Taste of Louisville Louisville, CO
05/17/2014 07/12 to 07/12 2014 Bridgeport Arts Fest Bridgeport, CT
05/17/2014 05/18 to 05/18 2014 Sixteenth Rock N Roll Sunday Greenacres, FL
05/17/2014 05/23 to 05/24 2014 Rock the Park New Port Richey, FL
05/17/2014 05/26 to 05/26 2014 Dacula Festival Dacula, GA
05/17/2014 06/07 to 06/07 2014 Putnam County Dairy Festival Eatonton, GA
05/17/2014 06/25 to 07/23 2014 See the Light – A National Juried Exhibition Attleboro, MA
05/17/2014 07/04 to 07/04 2014 Old Fashioned 4th of July Fine Arts Craft Fair Blooming Prairie, MN
05/17/2014 06/11 to 06/15 2014 Papillion Days Papillion, NE
05/17/2014 05/26 to 05/26 2014 Riverfest Beachwood, NJ
05/17/2014 06/28 to 06/28 2014 Beachstock 2014 Margate, NJ
05/17/2014 05/25 to 05/25 2014 Livable West Side Festival New York City, NY
05/17/2014 06/19 to 06/22 2014 Black Gold Days Glenpool, OK
05/17/2014 07/11 to 07/13 2014 Canterbury Folk Festival Ingersoll, ON
05/17/2014 05/24 to 05/25 2014 Kempton Pepper Jam Kempton, PA
05/17/2014 05/24 to 05/24 2014 Flopeye Fish Festival Great Falls, SC
05/17/2013 11/23 to 11/24 2013 Duxbury Art Association Craft Show Duxbury, MA
05/17/2013 05/15 to 05/18 2014 Gettysburg Spring Bluegrass Festival Gettysburg, PA
05/17/2013 11/22 to 11/24 2013 Visual Arts Center of Richmond Craft + Design Show Richmond, VA
05/18/2014 05/23 to 05/26 2014 Florence-Firestone Festival Florence-Firestone, CA
05/18/2014 06/15 to 06/15 2014 Dia De San Juan Festival-Puerto Rican Festival Long Beach, CA
05/18/2014 06/01 to 06/01 2014 McCloud Flea Market Mccloud, CA
05/18/2014 05/23 to 05/26 2014 Santa Ana Memorial Day Carnival Santa Ana, CA
05/18/2014 05/24 to 06/08 2014 Robin Hood Springtime Festival Guilford, CT
05/18/2014 05/24 to 05/25 2014 Randolph Street Market Chicago, IL
05/18/2014 07/12 to 07/19 2014 Ellis County Fair Hays, KS
05/18/2014 06/13 to 06/15 2014 Windom Riverfest Windom, MN
05/18/2014 06/07 to 06/08 2014 Funfest Hoboken, NJ
05/18/2014 05/24 to 05/24 2014 Ocean County Spring 4h Craft Fair & Open House Toms River, NJ
05/18/2014 05/21 to 05/26 2014 Broadway Mall Craft Show Hicksville, NY
05/18/2014 07/12 to 07/13 2014 Olde Sanborn Days Sanborn, NY
05/18/2014 05/24 to 05/24 2014 Crawfish Festival Friendswood, TX
05/18/2014 06/05 to 06/07 2014 Yoakum Tom Tom Festival Yoakum, TX
05/18/2014 06/08 to 06/08 2014 Richmond Bacon Festival Richmond, VA
05/18/2014 05/24 to 05/26 2014 Omro Memorial Day Weekend Sell-A-Bration Omro, WI
05/18/2013 11/02 to 11/02 2013 Christmas Boutique Bethlehem, PA
05/19/2014 05/24 to 05/25 2014 Zuni Festival of Arts and Culture Flagstaff, AZ
05/19/2014 05/23 to 05/26 2014 Grand Olde West Days Craig, CO
05/19/2014 06/07 to 06/07 2014 Watermelon Festival Chiefland, FL
05/19/2014 05/18 to 05/18 2014 Cruisin' For Camp Courageous Monticello, IA
05/19/2014 06/14 to 06/14 2014 Oskaloosa Art on the Square Oskaloosa, IA
05/19/2014 06/06 to 06/07 2014 Good Ol' Days Fort Scott, KS
05/19/2014 06/16 to 06/19 2014 Juneteenth - A Time To Reflect & Rejoice Flint, MI
05/19/2014 08/22 to 08/24 2014 Celebrate Wildwood Wildwood, MO
05/19/2014 05/25 to 05/27 2014 Banner Elk Herb Festival Banner Elk, NC
05/19/2014 06/01 to 06/01 2014 Shoeboxes For Soldiers Newton, NC
05/19/2014 05/25 to 05/25 2014 Long Branch Art in the Park Long Branch, NJ
05/19/2014 05/23 to 05/25 2014 General Clinton Canoe Regatta Bainbridge, NY
05/19/2014 06/15 to 06/15 2014 Antiques, Vintage & Collectibles Show West Bay Shore, NY
05/19/2014 05/24 to 05/31 2014 Old Firehouse Winery Arts & Crafts Show Geneva on the Lake, OH
05/19/2014 06/27 to 06/29 2014 Newport Flower Show Newport, RI
05/19/2014 06/14 to 06/14 2014 Tennessee Polk Salad Festival Harriman, TN
05/19/2014 05/24 to 05/25 2014 Blue Bell/Bluegrass Classic Car Show & Festival Llano, TX
05/19/2014 06/06 to 06/07 2014 Uncle Billy's Day Altavista, VA
05/19/2014 06/26 to 06/29 2014 Oregon Summer Fest Oregon, WI
05/19/2014 07/05 to 07/05 2014 Art and More on the Lakeshore Phillips, WI
05/20/2015 06/13 to 06/13 2015 Owen County Arts in The Park Owenton, KY
05/20/2015 05/22 to 05/23 2015 Pittsburgh Sports and Fitness Expo Monroeville, PA
05/20/2015 06/07 to 06/07 2015 Summer Jam Car and Craft Show Rosenberg, TX
05/20/2014 05/23 to 05/24 2014 Mount Ida Good Ol' Days Mount Ida, AR
05/20/2014 06/07 to 06/28 2014 Summer Concert Series Mesa, AZ
05/20/2014 05/31 to 05/31 2014 Arts & Crafts Fair Phoenix, AZ
05/20/2014 07/10 to 07/13 2014 Camarillo Fiesta and Street Fair Camarillo, CA
05/20/2014 05/24 to 05/26 2014 Bay Area Kidfest Concord, CA
05/20/2014 08/02 to 08/02 2014 Art in the Gardens Fort Bragg, CA
05/20/2014 06/14 to 06/15 2014 Great San Francisco Crystal Fair San Francisco, CA
05/20/2014 05/24 to 05/25 2014 Cajun and Blues Music Festival Simi Valley, CA
05/20/2014 06/01 to 06/01 2014 Hope, Love, Cure Ride Old Saybrook, CT
05/20/2014 07/30 to 08/31 2014 Washington Printmakers National Small Works Washington, DC
05/20/2014 06/13 to 06/14 2014 Bell Tower Festival Jefferson, IA
05/20/2014 05/23 to 05/26 2014 Weippe Camas Festival Weippe, ID
05/20/2014 08/23 to 08/24 2014 Fine Art on the Farm New Carlisle, IN
05/20/2014 06/06 to 06/07 2014 Bardstown Bluegrass Festival Bardstown, KY
05/20/2014 05/31 to 06/01 2014 Memorial Day Show Boothbay, ME
05/20/2014 08/23 to 08/23 2014 Picnic Music & Arts Festival Portland, ME
05/20/2014 06/01 to 06/01 2014 Kingsbury Country Fair Oxford, MI
05/20/2014 06/13 to 06/15 2014 Timber Days Cook, MN
05/20/2014 06/07 to 06/08 2014 Rhubarb Festival Conrad, MT
05/20/2014 06/07 to 06/07 2014 Wade Founders Day Celebration Wade, NC
05/20/2014 05/24 to 05/26 2014 Memorial Day Weekend Craft Festival Meredith, NH
05/20/2014 05/26 to 05/26 2014 Teaneck's Cedar Lane Family Festival Teaneck, NJ
05/20/2014 05/24 to 05/24 2014 International Jazz Day Las Vegas, NV
05/20/2014 05/24 to 05/24 2014 South Fork Guild Craft Show and Sale Bridgehampton, NY
05/20/2014 06/06 to 06/07 2014 Sulphur Springs Festival Clifton Springs, NY
05/20/2014 06/14 to 06/15 2014 Zonta Country Faire Glens Falls, NY
05/20/2014 05/17 to 05/17 2014 Vintage Yard and Antique Sale Lake Ronkonkoma, NY
05/20/2014 06/14 to 06/14 2014 River Street Fest Troy, NY
05/20/2014 06/05 to 06/08 2014 Saint Luke Carnival - Whitestone Whitestone, NY
05/20/2014 05/25 to 05/25 2014 Old Main Street Spring Antique Show Waynesville, OH
05/20/2014 07/18 to 07/20 2014 Oklahoma Summer Gem, Jewelry, & Bead Show Oklahoma City, OK
05/20/2014 06/07 to 06/07 2014 Route 66 Blowout Car Show and Festival Sapulpa, OK
05/20/2014 09/17 to 09/21 2014 Ottawa International Animation Festival Ottawa, ON
05/20/2014 06/05 to 06/26 2014 13 Nights on the River Saint Helens, OR
05/20/2014 06/08 to 06/08 2014 Odunde Festival Philadelphia, PA
05/20/2014 05/24 to 05/24 2014 Wrightsville Heritage Day Wrightsville, PA
05/20/2014 05/23 to 05/25 2014 Gullah Festival Beaufort, SC
05/20/2014 06/14 to 06/14 2014 Festival of Cultures Sioux Falls, SD
05/20/2014 06/07 to 06/08 2014 Eggs Ibit International Show and Sale Dallas, TX
05/20/2014 06/06 to 06/07 2014 Mex-Tex Family Fiesta Midland, TX
05/20/2014 06/14 to 06/14 2014 Beer Bourbon and BBQ Festival Richmond VA Richmond, VA
05/20/2014 05/25 to 05/25 2014 Fairhaven Festival Bellingham, WA
05/20/2014 06/06 to 06/08 2014 Kettle Falls Town and Country Days Kettle Falls, WA
05/20/2014 05/23 to 05/25 2014 Grays Harbor Home Show Ocean Shores, WA
05/20/2014 05/23 to 05/25 2014 Oceans of Fine Arts Show Ocean Shores, WA
05/20/2014 06/06 to 06/07 2014 Fennimore Fun Fest Fennimore, WI
05/20/2013 09/07 to 09/08 2013 Fall Chester Craft Show Chester, NJ
05/20/2013 09/06 to 09/08 2013 BEST of Fall Home Show Columbus, OH
05/20/2013 09/21 to 09/21 2013 Fall Fair Arts Festival Mason, OH
05/20/2013 05/23 to 05/25 2014 Adamstown Community Days Adamstown, PA
05/21/2014 07/11 to 07/13 2014 Byronfest Byron, IL
05/21/2014 06/14 to 06/14 2014 Grayslake Arts Festival Grayslake, IL
05/21/2014 06/14 to 06/14 2014 Wicked Etsy Plymouth, MA
05/21/2014 06/21 to 06/21 2014 Historic Festival Petoskey, MI
05/21/2014 06/04 to 06/05 2014 Plaza Crafts Show Albany, NY
05/21/2014 06/07 to 06/08 2014 City Island Spring Arts & Crafts Fair Bronx, NY
05/21/2014 06/01 to 06/01 2014 Twenty-First Spring Crafts Festival New York, NY
05/21/2014 05/24 to 05/24 2014 Mohican Arts & Crafts Festival Loudonville, OH
05/21/2013 10/04 to 10/13 2013 Austin City Limits Music Festival Austin, TX
05/22/2015 05/23 to 05/23 2015 Weekend On The Lake Sanford, MI
05/22/2015 06/12 to 06/13 2015 Little Blue River Art Fest Blue Springs, MO
05/22/2014 06/22 to 06/22 2014 The Phoenix Psychic Fair Phoenix, AZ
05/22/2014 06/06 to 06/07 2014 Fair on the Green Milford, CT
05/22/2014 05/24 to 05/24 2014 Cars & Guitars Hartwell, GA
05/22/2014 08/07 to 08/10 2014 Kahbang Music, Art and Film Festival Bangor, ME
05/22/2014 08/23 to 08/23 2014 Michigan Pride Rally & Festival Lansing, MI
05/22/2014 06/07 to 06/07 2014 Town-Wide Yard Sale Weare, NH
05/22/2014 06/01 to 06/01 2014 NJ's Lgbti Pride Celebration Asbury Park, NJ
05/22/2014 05/22 to 05/26 2014 Memorial Day Weekend Jam 5 Las Vegas, NV
05/22/2014 05/24 to 05/24 2014 Memorial Health & Wellness Fair Las Vegas, NV
05/22/2014 05/24 to 05/24 2014 Troy Farmers Market/ Arts & Crafts - May Troy, TX
05/22/2014 05/31 to 06/01 2014 Mason County Forest Festival Shelton, WA
05/22/2014 06/07 to 06/07 2014 Mural in a Day Toppenish, WA
05/23/2014 06/07 to 06/07 2014 June Fling Oneonta, AL
05/23/2014 05/23 to 05/24 2014 Arroyo Grande Strawberry Festival Arroyo Grande, CA
05/23/2014 06/21 to 06/21 2014 BUST Craftacular Los Angeles, CA
05/23/2014 05/24 to 05/25 2014 McCloud Mushroom Music Faire Mccloud, CA
05/23/2014 07/11 to 07/13 2014 Seven Sisters Fest San Luis Obispo, CA
05/23/2014 06/27 to 06/28 2014 Lyons Good Old Days Celebration Lyons, CO
05/23/2014 06/21 to 06/22 2014 Soupstock Arts & Music Festival Shelton, CT
05/23/2014 06/15 to 06/15 2014 Hippiefest Daytona Beach, FL
05/23/2014 06/07 to 06/08 2014 Pinellas Pepper Fest Pinellas Park, FL
05/23/2014 06/14 to 06/15 2014 6 Corners BBQ Fest Chicago, IL
05/23/2014 06/07 to 06/07 2014 Riverless Festival Arts and Crafts Fair Phillipsburg, KS
05/23/2014 06/14 to 06/14 2014 Festival By The Lake Wakefield, MA
05/23/2014 10/04 to 10/05 2014 John C. Campbell Fall Festival Brasstown, NC
05/23/2014 06/14 to 06/14 2014 Market Square Day Portsmouth, NH
05/23/2014 06/21 to 06/21 2014 Two To Lou Sandown, NH
05/23/2014 05/31 to 05/31 2014 Indoor/outdoor Flea Market Budd Lake, NJ
05/23/2014 06/14 to 06/14 2014 Cultural Heritage Festival Maplewood, NJ
05/23/2014 06/08 to 06/08 2014 North Jersey Pride Festival Maplewood, NJ
05/23/2014 06/01 to 06/01 2014 Rastro Reno Reno, NV
05/23/2014 06/21 to 06/21 2014 BAMRA Bleecker Street Festival New York, NY
05/23/2014 08/02 to 08/02 2014 Lebanon Blues Festival Lebanon, OH
05/23/2014 05/29 to 06/01 2014 Magnolia Festival Durant, OK
05/23/2014 06/07 to 06/07 2014 Justin Fun Days Justin, TX
05/23/2014 07/04 to 07/04 2014 Lubbock Fourth on Broadway Lubbock, TX
05/23/2014 05/24 to 05/25 2014 Repticon Houston Reptile & Exotic Animal Show Pasadena, TX
05/23/2014 05/30 to 05/31 2014 Texas City Funfest Texas City, TX
05/23/2014 05/23 to 05/26 2014 Bowman's Festival Market Hillsville, VA
05/23/2014 05/29 to 05/31 2014 Clinch River Days Saint Paul, VA
05/23/2014 06/20 to 06/20 2014 Auburn's KidsDay Auburn, WA
05/23/2014 06/08 to 06/08 2014 Art Along the Willow Hudson, WI
05/24/2014 05/23 to 05/26 2014 Bell Rock Plaza Memorial Day Show Sedona, AZ
05/24/2014 08/02 to 08/24 2014 AXIS Gallery Ninth National Juried Exhibition Sacramento, CA
05/24/2014 06/14 to 06/15 2014 San Jose Juneteenth Festival San Jose, CA
05/24/2014 07/19 to 07/19 2014 Castle Rock Winefest Castle Rock, CO
05/24/2014 07/26 to 09/06 2014 Call For Entries: Shy Rabbit Print International 5 Pagosa Springs, CO
05/24/2014 06/08 to 06/08 2014 Georgetown Day Georgetown, CT
05/24/2014 08/08 to 08/10 2014 Litchfield Jazz Festival Goshen, CT
05/24/2014 06/08 to 06/08 2014 Fiftieth Arts and Crafts Fair Shelton, CT
05/24/2014 05/24 to 05/26 2014 Bentonsport Flea Market & Craft Show Bentonsport, IA
05/24/2014 06/06 to 06/08 2014 Ribfest Chicago Chicago, IL
05/24/2014 06/07 to 06/07 2014 Craft Show and Health Fair Park Forest, IL
05/24/2014 06/07 to 06/08 2014 Gathering of Great Lakes Nations Powwow Portland, IN
05/24/2014 06/06 to 06/08 2014 National Asparagus Festival Hart & Shelby, MI
05/24/2014 08/19 to 08/23 2014 Alcona County Fair Lincoln, MI
05/24/2014 05/24 to 05/26 2014 Memorial Day Weekend Festival Bradley Beach, NJ
05/24/2014 06/01 to 06/01 2014 Saint Anthony Chicken BBQ Hammonton, NJ
05/24/2014 06/08 to 06/29 2014 Auburn International Farmers Market - June Auburn, WA
05/25/2014 06/14 to 06/14 2014 Outbound Country Music Festival Prescott, AZ
05/25/2014 08/24 to 08/24 2014 Leucadia Artwalk Leucadia, CA
05/25/2014 06/18 to 06/22 2014 Sonoma-Marin Fair Petaluma, CA
05/25/2014 06/06 to 06/08 2014 Antiques, Collectibles & More Redding, CA
05/25/2014 05/30 to 06/01 2014 Redwood Empire Fair Spring Fest Ukiah, CA
05/25/2014 06/14 to 06/14 2014 Bailey Day Bailey, CO
05/25/2014 07/26 to 07/26 2014 Indianola Open-Air Market Indianola, IA
05/25/2014 06/01 to 06/01 2014 Art and Roses Boise, ID
05/25/2014 07/11 to 07/13 2014 Square Roots Chicago, IL
05/25/2014 06/14 to 06/15 2014 Old Canal Days Arts & Crafts Show Lockport, IL
05/25/2014 06/08 to 06/08 2014 Whisker Walk 2014 Lancaster, MA
05/25/2014 06/07 to 06/07 2014 McHenry Highland Festival McHenry, MD
05/25/2014 06/08 to 06/08 2014 Takoma Park Jazzfest 2014 Takoma Park, MD
05/25/2014 06/27 to 06/29 2014 Water Ski Days Lake City, MN
05/25/2014 06/21 to 06/22 2014 Rock 2 Adopt 4 the Pets at the Zoo Forked River, NJ
05/25/2014 06/14 to 06/15 2014 Nanticote-Lenape Indian Pow Wow Woodstown, NJ
05/25/2014 05/31 to 05/31 2014 NYC's Multicultural Festival New York, NY
05/25/2014 06/28 to 06/28 2014 Umatilla Landing Days Umatilla, OR
05/25/2014 05/31 to 05/31 2014 Vendor Craft Show and Bazaar to Benefit ACS Cranston, RI
05/25/2014 06/07 to 06/07 2014 Art on Main Street Maynardville, TN
05/25/2014 05/31 to 05/31 2014 Richland Trails Festival Pulaski, TN
05/25/2014 06/07 to 06/07 2014 First Saturdays at The Chicken Farm Art Center - June San Angelo, TX
05/25/2014 06/07 to 06/08 2014 Gingerbread Trail Arts & Crafts Festival Waxahachie, TX
05/26/2014 06/19 to 06/22 2014 Sonic Bloom South Park, CO
05/26/2014 06/06 to 06/06 2014 First Fridays - June Putnam, CT
05/26/2014 06/27 to 06/28 2014 Main Street Blast New Port Richey, FL
05/26/2014 05/28 to 06/01 2014 Brunswick Square Mall Summer Fair East Brunswick, NJ
05/26/2014 05/31 to 06/01 2014 Street Fever Show N' Shine Lovelock, NV
05/26/2014 06/06 to 06/08 2014 Festival Arts Fair Vandalia, OH
05/26/2014 06/07 to 06/07 2014 Wildcat Ridge Music & Wine Festival Gratz, PA
05/26/2014 06/14 to 06/14 2014 Columbia Pike Blues Festival Arlington, VA
05/26/2014 06/07 to 06/07 2014 Walk in the Woods Art Fair Saint Germain, WI
05/27/2014 06/06 to 06/08 2014 Old Thyme Country Fair Burbank, CA
05/27/2014 06/01 to 06/01 2014 Awaken Wellness Fair - Stamford CT Stamford, CT
05/27/2014 06/07 to 06/08 2014 Woodstock Market & Show - June Acworth, GA
05/27/2014 06/14 to 06/14 2014 Tonganoxie Days Tonganoxie, KS
05/27/2014 06/18 to 10/25 2014 Rutherford Farmers' Market Rutherford, NJ
05/27/2014 08/16 to 08/16 2014 Summer in the City Festival Batavia, NY
05/27/2014 06/07 to 06/07 2014 Nescatunga Arts Festival Alva, OK
05/27/2014 06/07 to 06/07 2014 Gold Dust Day Gold Hill, OR
05/27/2014 11/22 to 11/22 2014 Arts & Crafts Fair Kenosha, WI
05/27/2014 11/22 to 11/22 2014 Celtic Christmas Boutique Arts & Crafts Show Milwaukee, WI
05/28/2014 07/04 to 07/04 2014 Suisun City July Fourth Celebration Suisun City, CA
05/28/2014 06/07 to 06/08 2014 Sunnyvale Art & Wine Festival Sunnyvale, CA
05/28/2014 07/05 to 07/06 2014 Rock Around the Block Chicago, IL
05/28/2014 06/07 to 06/07 2014 Eureka Days Eureka, KS
05/28/2014 06/06 to 06/07 2014 Beltway BBQ Showdown Fort Washington, MD
05/28/2014 06/07 to 06/07 2014 Aztec Fiesta Days Aztec, NM
05/28/2014 06/06 to 06/08 2014 WNY Dairy and Agriculture Festival Springville, NY
05/28/2014 09/13 to 09/20 2014 Delaware County Fair Delaware, OH
05/28/2014 06/07 to 06/07 2014 Arts and Crafts Show Webbers Falls, OK
05/28/2014 05/31 to 06/01 2014 Herb and Fiber Arts Festival Cooksburg, PA
05/28/2014 07/25 to 07/27 2014 Grainger County Tomato Festival Rutledge, TN
05/28/2014 06/07 to 06/07 2014 Market Day on the Square Bellville, TX
05/28/2014 06/27 to 06/27 2014 Movie Night - Cars Virginia Beach, VA
05/28/2014 06/06 to 06/08 2014 Sedro-Woolley Blast From the Past Sedro-Woolley, WA
05/28/2014 06/28 to 06/28 2014 Parkside Summer Arts and Crafts Festival Kenosha, WI
05/28/2014 06/13 to 06/14 2014 Monroe Balloon Rally Arts and Crafts Fair Monroe, WI
05/29/2014 09/20 to 09/21 2014 Downtown Boulder Fall Fest Art Show Boulder, CO
05/29/2014 07/26 to 07/26 2014 Summer Psychic Fair at Weirs Beach Community Center Laconia, NH
05/29/2014 07/27 to 07/27 2014 Narrowsburg Riverfest Narrowsburg, NY
05/29/2014 06/07 to 06/07 2014 Americana Crafters Market Marlin, TX
05/30/2015 06/12 to 06/14 2015 Big Sky Fiber Arts Festival Hamilton, MT
05/30/2015 06/05 to 06/07 2015 Street Rod Nationals East Plus York, PA
05/30/2015 07/12 to 07/12 2015 A Day in the Park Arts & Crafts Fair Beaver Dam, WI
05/30/2015 06/26 to 06/28 2015 Musky Festival Hayward, WI
05/30/2015 06/27 to 06/27 2015 Shepherdstown Street Fest Shepherdstown, WV
05/30/2014 06/28 to 06/30 2014 Salcha Country Fair Salcha, AK
05/30/2014 07/03 to 07/03 2014 Fort Rucker Freedom Fest Fort Rucker, AL
05/30/2014 07/04 to 07/04 2014 Arcata Fourth of July Jubilee Festival Arcata, CA
05/30/2014 06/08 to 06/08 2014 Road Kings Picnic in the Park Burbank, CA
05/30/2014 06/14 to 06/15 2014 Great American Irish Fair and Music Festival Long Beach, CA
05/30/2014 09/06 to 09/06 2014 Napa Artisan's Festival Napa, CA
05/30/2014 08/13 to 08/17 2014 Plumas Sierra County Fair Quincy, CA
05/30/2014 06/07 to 06/07 2014 Santa Barbara Ocean Festival Santa Barbara, CA
05/30/2014 08/02 to 08/03 2014 Church Steet Fair Santa Cruz, CA
05/30/2014 07/30 to 08/03 2014 Solano County Fair Vallejo, CA
05/30/2014 08/24 to 08/24 2014 Affordable Arts Festival Littleton, CO
05/30/2014 06/06 to 06/07 2014 Boats, Bands and BBQ Pueblo, CO
05/30/2014 06/21 to 07/06 2014 Midsummer Fantasy Renaissance Faire Ansonia, CT
05/30/2014 06/14 to 06/15 2014 Branford Craft and Community Expo Branford, CT
05/30/2014 06/14 to 06/14 2014 Cheshire Srawberry Festival Cheshire, CT
05/30/2014 06/20 to 06/21 2014 Monticello/Jefferson Watermelon Festival Monticello, FL
05/30/2014 09/27 to 09/28 2014 Duluth Fall Festival Duluth, GA
05/30/2014 06/14 to 06/14 2014 Festival Benefiting A Prison Ministry For Women Lawrenceville, GA
05/30/2014 09/06 to 09/07 2014 Beaux Arts Fall Fair Davenport, IA
05/30/2014 06/07 to 06/08 2014 QC Pride Fest 2014 Davenport, IA
05/30/2014 06/14 to 06/14 2014 Market On Central Fort Dodge, IA
05/30/2014 06/12 to 06/14 2014 Governor's Days Grimes, IA
05/30/2014 06/08 to 06/08 2014 Latino Festival Marshalltown, IA
05/30/2014 07/04 to 07/04 2014 Coeur D'alene Fourth of July Festival Coeur D'alene, ID
05/30/2014 06/06 to 06/07 2014 Two Chicks in a Barn Nampa, ID
05/30/2014 06/18 to 06/22 2014 Huntington Heritage Days Huntington, IN
05/30/2014 08/01 to 08/02 2014 Pierceton Days Pierceton, IN
05/30/2014 09/16 to 09/21 2014 Kentucky Bourbon Festival Bardstown, KY
05/30/2014 05/31 to 06/01 2014 Repticon Baton Rouge Reptile & Exotic Animal Show Gonzales, LA
05/30/2014 07/18 to 07/20 2014 Saint George Grecian Festival On Cape Cod Centerville, MA
05/30/2014 05/31 to 05/31 2014 Strawberry Festival Sykesville, MD
05/30/2014 07/26 to 08/01 2014 Carroll County 4-H & FFA Fair Westminster, MD
05/30/2014 06/21 to 06/21 2014 Spirit of the Woods Folk Festival Brethren, MI
05/30/2014 06/20 to 06/22 2014 Springport Summer Festival Springport, MI
05/30/2014 06/04 to 06/25 2014 Walled Lake Farmers Market - June Walled Lake, MI
05/30/2014 06/08 to 06/08 2014 Buffalo Jaycees Craft Show Buffalo, MN
05/30/2014 08/16 to 08/16 2014 Art and All That Jazz Burnsville, MN
05/30/2014 06/21 to 06/21 2014 Solstice Music and Arts Fair Clearwater, MN
05/30/2014 06/14 to 06/14 2014 Twin Cities Juneteenth Celebration Minneapolis, MN
05/30/2014 05/31 to 05/31 2014 Spring Marketplace Craft Show & Bazaar Rolla, MO
05/30/2014 07/04 to 07/04 2014 Fine Arts and Crafts Showcase Brevard, NC
05/30/2014 10/05 to 10/05 2014 Chapel Hill's Festifall Arts Festival Chapel Hill, NC
05/30/2014 06/22 to 06/22 2014 Singing on the Mountain Linville, NC
05/30/2014 06/06 to 06/07 2014 The Gold Festival Old Fort, NC
05/30/2014 05/31 to 06/01 2014 Repticon Winston-Salem Reptile & Exotic Animal Show Winston-Salem, NC
05/30/2014 06/14 to 06/14 2014 Summer Craft and Vendor Showcase East Brunswick, NJ
05/30/2014 07/09 to 07/12 2014 Italian-American Festival Freehold, NJ
05/30/2014 11/22 to 11/23 2014 YWCA Princeton Crafters' Marketplace Princeton, NJ
05/30/2014 06/08 to 06/08 2014 Vernon Day Vernon, NJ
05/30/2014 07/12 to 07/12 2014 Arts & Crafts Fayre Warren, NJ
05/30/2014 06/10 to 06/14 2014 Fort Sumner Old Fort Days Fort Sumner, NM
05/30/2014 08/23 to 09/01 2014 Elko County Fair Elko, NV
05/30/2014 06/08 to 06/08 2014 The Rastro of Reno Reno, NV
05/30/2014 07/24 to 08/15 2014 MFA National Competition New York, NY
05/30/2014 06/19 to 06/20 2015 Owego Strawberry Festival Owego, NY
05/30/2014 07/04 to 07/04 2014 Antiques & Farmers Holiday Outdoor Market Pound Ridge, NY
05/30/2014 07/12 to 07/13 2014 Olfactory Farm Lavender Festival Red Creek, NY
05/30/2014 06/28 to 06/28 2014 Freedomfest and Taste of Green Green, OH
05/30/2014 06/06 to 06/07 2014 Miami Nation Powwow Miami, OK
05/30/2014 08/02 to 08/03 2014 BACG Summer Art & Craft Show Bancroft, ON
05/30/2014 07/18 to 07/20 2014 The Home County Music & Art Festival London, ON
05/30/2014 07/11 to 07/12 2014 Turkey Rama Mcminnville, OR
05/30/2014 07/22 to 07/26 2014 Coos County Fair Myrtle Point, OR
05/30/2014 08/07 to 08/10 2014 Polk County Fair Rickreall, OR
05/30/2014 06/07 to 06/07 2014 Skippack Summertyme Festival Skippack, PA
05/30/2014 06/13 to 06/15 2014 Harrisburg Days Harrisburg, SD
05/30/2014 06/20 to 06/20 2014 Dalesburg Midsummer Festival Vermillion, SD
05/30/2014 08/15 to 08/17 2014 Riverboat Days at the Mall Yankton, SD
05/30/2014 06/20 to 06/21 2014 Southern Weekend of Art Fayetteville, TN
05/30/2014 07/04 to 07/04 2014 Fireworks Festival Amarillo, TX
05/30/2014 11/13 to 11/16 2014 Nutcracker Market Houston, TX
05/30/2014 06/18 to 06/20 2015 Stockdale Watermelon Jubilee Stockdale, TX
05/30/2014 06/27 to 06/28 2014 Art on the Lawn North Logan, UT
05/30/2014 07/04 to 07/04 2014 North Ogden Cherry Days North Ogden, UT
05/30/2014 06/12 to 06/14 2014 Art City Days Springville, UT
05/30/2014 07/04 to 07/04 2014 Auburn's Fourth of July Festival Auburn, WA
05/30/2014 07/11 to 07/12 2014 Gorge Days North Bonneville, WA
05/30/2014 07/26 to 07/27 2014 Ethnic Fest Tacoma, WA
05/30/2014 06/14 to 06/14 2014 Amery Women's Club Arts and Crafts Show Amery, WI
05/30/2014 06/28 to 06/29 2014 Cedarburg Strawberry Festival Cedarburg, WI
05/30/2014 11/02 to 11/02 2014 Grace Fine Art & Craft Festival Milwaukee, WI
05/30/2014 10/03 to 10/05 2014 Oglebayfest Wheeling, WV
05/30/2013 10/05 to 10/05 2013 Saint Thomas More Fall Art and Craft Fair Bethel Park, PA
05/30/2013 11/01 to 11/02 2013 Holiday Collectibles Austin, TX
05/30/2013 11/22 to 11/24 2013 Vermont Hand Crafters Fine Craft & Art Show South Burlington, VT
05/31/2014 07/18 to 07/20 2014 Wild Mountain Music Fest Hinton, AB
05/31/2014 09/05 to 09/06 2014 Birmingham Artwalk Birmingham, AL
05/31/2014 07/19 to 07/19 2014 Wetumpka's River and Blues Wetumpka, AL
05/31/2014 07/02 to 07/31 2014 South Arkansas Arts Center Juried Competition El Dorado, AR
05/31/2014 08/06 to 08/29 2014 ANA Regional Art Exhibition Springdale, AR
05/31/2014 06/13 to 06/14 2014 Wynne Farmfest Wynne, AR
05/31/2014 06/21 to 06/22 2014 White Mountain Native American Art Festival Lakeside, AZ
05/31/2014 07/04 to 07/06 2014 Prescott Rodeo Days Fine Art and Craft Show Prescott, AZ
05/31/2014 07/04 to 07/06 2014 Big Bear Lake Artwalk Festival Big Bear Lake, CA
05/31/2014 06/21 to 06/22 2014 Lake Arrowhead Rotary Art and Wine Festival Lake Arrowhead, CA
05/31/2014 07/24 to 08/10 2014 Sonoma County Fair Santa Rosa, CA
05/31/2014 08/16 to 08/17 2014 Tehachapi Mountain Festival Tehachapi, CA
05/31/2014 06/26 to 06/29 2014 Tuolumne Lumber Jubilee Tuolumne, CA
05/31/2014 06/20 to 06/20 2014 Taste of Downtown Ukiah, CA
05/31/2014 08/22 to 08/23 2014 Rocky Mountain Air Show Greeley, CO
05/31/2014 06/06 to 06/08 2014 Colorado Medieval Festival Loveland, CO
05/31/2014 08/04 to 08/10 2014 Garfield County Fair Rifle, CO
05/31/2014 06/21 to 06/21 2014 Summer Fun Fest Fairfield, CT
05/31/2014 06/01 to 06/01 2014 Naugatuck River Duck Race Festival Naugatuck, CT
05/31/2014 06/20 to 06/22 2014 Harvest Festival Clermont, FL
05/31/2014 11/07 to 11/09 2014 Great Gulfcoast Arts Festival Pensacola, FL
05/31/2014 06/07 to 06/07 2014 Down Home Family Day Greenville, GA
05/31/2014 05/31 to 06/01 2014 Finster Fest Summerville, GA
05/31/2014 07/12 to 07/12 2014 Market On Central Fort Dodge, IA
05/31/2014 08/09 to 08/09 2014 Market On Central Fort Dodge, IA
05/31/2014 06/19 to 06/21 2014 Awesome Biker Nights Sioux City, IA
05/31/2014 06/13 to 06/14 2014 Car D'lane Coeur D Alene, ID
05/31/2014 07/03 to 07/06 2014 Teton Valley Balloon Rally Driggs, ID
05/31/2014 09/27 to 09/28 2014 Thousand Springs Festival Hagerman, ID
05/31/2014 06/07 to 06/08 2014 Murphy Outpost Days Murphy, ID
05/31/2014 06/21 to 06/22 2014 Danville Arts in the Park Danville, IL
05/31/2014 08/04 to 08/25 2014 Lyons Community Farmers Market - August Lyons, IL
05/31/2014 07/07 to 07/28 2014 Lyons Community Farmers Market - July Lyons, IL
05/31/2014 06/02 to 06/30 2014 Lyons Community Farmers Market - June Lyons, IL
05/31/2014 09/01 to 09/29 2014 Lyons Community Farmers Market - September Lyons, IL
05/31/2014 07/26 to 07/27 2014 Gallery in the Garden Woodstock, IL
05/31/2014 06/06 to 06/08 2014 Merom Bluff Chautauqua Merom, IN
05/31/2014 06/25 to 06/28 2014 Mermaid Festival North Webster, IN
05/31/2014 06/14 to 06/14 2014 Calf Day Celebration Wolcottville, IN
05/31/2014 08/30 to 10/13 2014 Kansas City Renaissance Festival Bonner Springs, KS
05/31/2014 06/20 to 06/21 2014 Edgerton Frontier Days Edgerton, KS
05/31/2014 06/13 to 06/14 2014 Festival on the Trails Gardner, KS
05/31/2014 08/01 to 07/31 2015 WU Outdoor Sculpture Competition Topeka, KS
05/31/2014 06/13 to 06/14 2014 Bradfordsville Old Mill Days Bradfordsville, KY
05/31/2014 06/06 to 06/07 2014 Ludlow Summer Fireworks Festival Ludlow, KY
05/31/2014 10/18 to 10/19 2014 Bethesda Row Arts Festival Bethesda, MD
05/31/2014 06/14 to 06/15 2014 Cumberland Heritage Days Cumberland, MD
05/31/2014 07/12 to 07/13 2014 Common Ground on the Hill Roots Music & Arts Festival Westminster, MD
05/31/2014 08/15 to 08/17 2014 Machias Wild Blueberry Festival Machias, ME
05/31/2014 07/11 to 07/13 2014 Michigan Lavender Festival Armada, MI
05/31/2014 07/21 to 07/26 2014 Fowlerville Family Fair Fowlerville, MI
05/31/2014 07/05 to 07/05 2014 Sugar Springs Art and Craft Show Gladwin, MI
05/31/2014 06/21 to 06/22 2014 Weekend in the Country - Greater Grand Rapids Lowell, MI
05/31/2014 06/27 to 06/27 2014 Sault Art, Craft, and Family Fun Fair Sault Sainte Marie, MI
05/31/2014 06/26 to 06/28 2014 Earle Brown Days Festival Brooklyn Center, MN
05/31/2014 06/20 to 06/22 2014 Prairie Fest Long Prairie, MN
05/31/2014 07/18 to 07/19 2014 Lakefront Music Fest Prior Lake, MN
05/31/2014 06/27 to 06/28 2014 Main Street Party/Sweet Corn Festival East Prairie, MO
05/31/2014 06/13 to 06/14 2014 Delta Jubilee Clarksdale, MS
05/31/2014 06/21 to 06/21 2014 Meridian Juneteenth Heritage Festival Meridian, MS
05/31/2014 06/26 to 06/29 2014 Summerfest Grafton, ND
05/31/2014 06/08 to 06/15 2014 Homestead Days Beatrice, NE
05/31/2014 06/13 to 06/15 2014 Cardinal Festival Days South Sioux City, NE
05/31/2014 06/21 to 06/21 2014 Strawberry Festival, Vendor Fair - Blood Drive Jacobstown, NJ
05/31/2014 06/14 to 06/14 2014 North Plainfield Street Fair North Plainfield, NJ
05/31/2014 06/07 to 06/07 2014 Roseland Country Fair and Craft Show Roseland, NJ
05/31/2014 06/07 to 06/07 2014 West Orange Street Fair West Orange, NJ
05/31/2014 07/11 to 07/13 2014 Española Valley Fiestas Espanola, NM
05/31/2014 06/14 to 06/15 2014 Santa Fe Plaza Arts and Crafts Festival Santa Fe, NM
05/31/2014 08/09 to 08/10 2014 Brockport Arts Festival Brockport, NY
05/31/2014 08/02 to 08/02 2014 Cortland Arts and Wine Festival Cortland, NY
05/31/2014 09/27 to 09/28 2014 Gracie Square Art Show New York, NY
05/31/2014 06/08 to 06/08 2014 Plantathon & Crafts Fair New York, NY
05/31/2014 06/01 to 06/01 2014 Harborfest Craft Fair 2014 Port Washington, NY
05/31/2014 06/28 to 06/09 2014 Freihofer's Jazz Festival Saratoga Springs, NY
05/31/2014 06/01 to 06/01 2014 Suffern Street Festival Suffern, NY
05/31/2014 07/04 to 07/04 2014 July Fourth Pre-Parade Festival Windham, NY
05/31/2014 06/21 to 06/21 2014 Cahoon in June Bay Village, OH
05/31/2014 06/27 to 06/29 2014 Italian American Summer Festival Berea, OH
05/31/2014 08/23 to 08/23 2014 Art-A-Palooza Green, OH
05/31/2014 06/12 to 06/14 2014 Washboard Music Festival Logan, OH
05/31/2014 07/12 to 07/12 2014 Art on the Hill & Wine Tasting Mantua Village, OH
05/31/2014 06/14 to 06/14 2014 Drumright Discovery Days Drumright, OK
05/31/2014 07/04 to 07/04 2014 Tulsa Freedomfest Tulsa, OK
05/31/2014 08/08 to 08/10 2014 Trout Forest Music Festival Ear Falls, ON
05/31/2014 07/04 to 07/06 2014 Northern Lights Festival Boréal 43 Sudbury, ON
05/31/2014 06/14 to 06/15 2014 Civil War Reenactment Bedford, PA
05/31/2014 06/28 to 06/28 2014 Columbia Antique Art & Craft Show Columbia, PA
05/31/2014 06/08 to 06/12 2014 Fireman's Fair Franklin, PA
05/31/2014 06/29 to 07/05 2014 Punxsutawney Groundhog Festival Punxsutawney, PA
05/31/2014 09/20 to 09/28 2014 Penn's Colony Festival Saxonburg, PA
05/31/2014 08/15 to 08/17 2014 Hickory Fest Wellsboro, PA
05/31/2014 06/12 to 06/15 2014 Wind Gap Bluegrass Fest Wind Gap, PA
05/31/2014 07/18 to 07/20 2014 Heritagefest XXXIV East Providence, RI
05/31/2014 06/28 to 06/29 2014 Narragansett Art Festival Narragansett, RI
05/31/2014 08/29 to 08/31 2014 Lifelight South Dakota Worthing, SD
05/31/2014 06/19 to 06/21 2014 Lafayette Hillbilly Days Lafayette, TN
05/31/2014 06/21 to 06/21 2014 Lynchburg Motorcycle Rally Lynchburg, TN
05/31/2014 06/07 to 06/07 2014 Wartrace Musicfest Wartrace, TN
05/31/2014 07/11 to 07/13 2014 Taste of Dallas Dallas, TX
05/31/2014 06/14 to 06/14 2014 Czech Kolache-Klobase Festival East Bernard, TX
05/31/2014 07/04 to 07/06 2014 Granbury 4th of July Arts & Crafts Festival Granbury, TX
05/31/2014 06/07 to 06/07 2014 Round Rock Market Days Round Rock, TX
05/31/2014 06/11 to 06/14 2014 West Texas Western Swing Festival Snyder, TX
05/31/2014 02/06 to 02/07 2015 The Mom EXPO The Woodlands, TX
05/31/2014 07/03 to 07/05 2014 Freedom Days Provo, UT
05/31/2014 06/28 to 06/28 2014 Rock'n 4 Autism Buena Vista, VA
05/31/2014 09/27 to 09/28 2014 Smith Mountain Lake Wine Festival Moneta, VA
05/31/2014 08/22 to 08/24 2014 Chehalis Garlic Fest and Craft Show Chehalis, WA
05/31/2014 10/03 to 10/05 2014 Celebration of Western & Wildlife Art Show Puyallup, WA
05/31/2014 07/11 to 07/12 2014 Derby Days Redmond, WA
05/31/2014 08/16 to 08/16 2014 South Tacoma Classic Car Show Tacoma, WA
05/31/2014 07/07 to 07/13 2014 Sauk County Fair Barbaroo, WI
05/31/2014 07/05 to 07/05 2014 Namekagon Art and Music Festival Seeley, WI
05/31/2014 06/05 to 06/08 2014 Stratford Heritage Days Stratford, WI
05/31/2014 06/07 to 06/08 2014 Saint John Festival Craft Fair Waunakee, WI
05/31/2014 06/08 to 06/08 2014 June Jubilee Martinsburg, WV
05/31/2014 07/25 to 07/27 2014 Oyster Ridge Music Festival Kemmerer, WY
05/31/2013 09/18 to 09/21 2013 New York International Independent Film Festival Los Angeles, CA
05/31/2013 09/13 to 10/18 2013 A Sense of Place Juried Fine Art Exhibition Augusta, GA
05/31/2013 11/23 to 11/23 2013 Shepherd Hill's Festival of Crafts Dudley, MA
05/31/2013 09/14 to 09/15 2013 Lac Ste. Claire Fine Art Fair Saint Clair Shores, MI
05/31/2013 09/26 to 10/06 2013 Cleveland County Fair Shelby, NC
05/31/2013 09/07 to 09/08 2013 Echo: Art Fair Buffalo, NY
05/31/2013 09/20 to 09/22 2013 Pennsylvania Bavarian Oktoberfest Canonsburg, PA
05/31/2013 09/07 to 09/07 2013 Art on the Kinni River Falls, WI
05/31/2013 09/07 to 09/07 2013 Waukesha Art Fest Waukesha, WI
 
Shop the FNO Marketplace Festival of Finds. You'll be amazed by what you discover.

Join our Free e-lists!
bookmark Subscribe to FNO
our terms: site - marketplace |  privacy policy |  contact us
© Festival Network Online 2014
P.O. Box 18839 Asheville, NC 28814